<?xml version='1.0' encoding='UTF-8'?>
<gpx version="1.1" creator="https://www.komoot.de" xmlns="http://www.topografix.com/GPX/1/1" xmlns:xsi="http://www.w3.org/2001/XMLSchema-instance" xsi:schemaLocation="http://www.topografix.com/GPX/1/1 http://www.topografix.com/GPX/1/1/gpx.xsd">
  <metadata>
    <name>20210611_103025.gpx</name>
    <author>
      <link href="https://www.komoot.de">
        <text>komoot</text>
        <type>text/html</type>
      </link>
    </author>
  </metadata>
  <trk>
    <name>20210611_103025.gpx</name>
    <trkseg>
      <trkpt lat="51.869180" lon="10.683526">
        <ele>238.255132</ele>
        <time>2022-09-12T07:19:18.266Z</time>
      </trkpt>
      <trkpt lat="51.869213" lon="10.683458">
        <ele>238.255132</ele>
        <time>2022-09-12T07:19:23.606Z</time>
      </trkpt>
      <trkpt lat="51.869167" lon="10.683290">
        <ele>238.255132</ele>
        <time>2022-09-12T07:19:34.966Z</time>
      </trkpt>
      <trkpt lat="51.869194" lon="10.683210">
        <ele>238.255132</ele>
        <time>2022-09-12T07:19:40.601Z</time>
      </trkpt>
      <trkpt lat="51.869144" lon="10.683133">
        <ele>238.255132</ele>
        <time>2022-09-12T07:19:47.510Z</time>
      </trkpt>
      <trkpt lat="51.869050" lon="10.683159">
        <ele>238.255132</ele>
        <time>2022-09-12T07:19:57.049Z</time>
      </trkpt>
      <trkpt lat="51.868996" lon="10.683155">
        <ele>238.255132</ele>
        <time>2022-09-12T07:20:02.465Z</time>
      </trkpt>
      <trkpt lat="51.868942" lon="10.683180">
        <ele>238.255132</ele>
        <time>2022-09-12T07:20:08.083Z</time>
      </trkpt>
      <trkpt lat="51.868940" lon="10.683258">
        <ele>238.255132</ele>
        <time>2022-09-12T07:20:12.910Z</time>
      </trkpt>
      <trkpt lat="51.868958" lon="10.683336">
        <ele>238.255132</ele>
        <time>2022-09-12T07:20:18.053Z</time>
      </trkpt>
      <trkpt lat="51.868965" lon="10.683458">
        <ele>238.255132</ele>
        <time>2022-09-12T07:20:25.627Z</time>
      </trkpt>
      <trkpt lat="51.868965" lon="10.683593">
        <ele>238.255132</ele>
        <time>2022-09-12T07:20:33.966Z</time>
      </trkpt>
      <trkpt lat="51.868977" lon="10.683667">
        <ele>238.255132</ele>
        <time>2022-09-12T07:20:38.694Z</time>
      </trkpt>
      <trkpt lat="51.868988" lon="10.683788">
        <ele>238.255132</ele>
        <time>2022-09-12T07:20:46.253Z</time>
      </trkpt>
      <trkpt lat="51.868980" lon="10.683930">
        <ele>238.313498</ele>
        <time>2022-09-12T07:20:55.064Z</time>
      </trkpt>
      <trkpt lat="51.868900" lon="10.684058">
        <ele>238.410217</ele>
        <time>2022-09-12T07:21:06.315Z</time>
      </trkpt>
      <trkpt lat="51.868893" lon="10.684172">
        <ele>238.471056</ele>
        <time>2022-09-12T07:21:13.394Z</time>
      </trkpt>
      <trkpt lat="51.868893" lon="10.684308">
        <ele>238.543279</ele>
        <time>2022-09-12T07:21:21.800Z</time>
      </trkpt>
      <trkpt lat="51.868862" lon="10.684456">
        <ele>238.626273</ele>
        <time>2022-09-12T07:21:31.454Z</time>
      </trkpt>
      <trkpt lat="51.868835" lon="10.684610">
        <ele>238.711288</ele>
        <time>2022-09-12T07:21:41.350Z</time>
      </trkpt>
      <trkpt lat="51.868813" lon="10.684731">
        <ele>238.778273</ele>
        <time>2022-09-12T07:21:49.143Z</time>
      </trkpt>
      <trkpt lat="51.868866" lon="10.684656">
        <ele>238.838805</ele>
        <time>2022-09-12T07:21:56.185Z</time>
      </trkpt>
      <trkpt lat="51.868930" lon="10.684556">
        <ele>238.915290</ele>
        <time>2022-09-12T07:22:05.088Z</time>
      </trkpt>
      <trkpt lat="51.868980" lon="10.684470">
        <ele>238.978020</ele>
        <time>2022-09-12T07:22:12.384Z</time>
      </trkpt>
      <trkpt lat="51.868980" lon="10.684303">
        <ele>239.066705</ele>
        <time>2022-09-12T07:22:22.702Z</time>
      </trkpt>
      <trkpt lat="51.868965" lon="10.684214">
        <ele>239.115698</ele>
        <time>2022-09-12T07:22:28.402Z</time>
      </trkpt>
      <trkpt lat="51.868935" lon="10.684142">
        <ele>239.161825</ele>
        <time>2022-09-12T07:22:33.770Z</time>
      </trkpt>
      <trkpt lat="51.868916" lon="10.684020">
        <ele>239.228642</ele>
        <time>2022-09-12T07:22:41.543Z</time>
      </trkpt>
      <trkpt lat="51.868908" lon="10.683886">
        <ele>239.300135</ele>
        <time>2022-09-12T07:22:49.864Z</time>
      </trkpt>
      <trkpt lat="51.868908" lon="10.683750">
        <ele>239.372358</ele>
        <time>2022-09-12T07:22:58.270Z</time>
      </trkpt>
      <trkpt lat="51.868896" lon="10.683629">
        <ele>239.437438</ele>
        <time>2022-09-12T07:23:05.841Z</time>
      </trkpt>
      <trkpt lat="51.868890" lon="10.683548">
        <ele>239.480762</ele>
        <time>2022-09-12T07:23:10.885Z</time>
      </trkpt>
      <trkpt lat="51.868908" lon="10.683438">
        <ele>239.541194</ele>
        <time>2022-09-12T07:23:17.914Z</time>
      </trkpt>
      <trkpt lat="51.868923" lon="10.683351">
        <ele>239.589163</ele>
        <time>2022-09-12T07:23:23.466Z</time>
      </trkpt>
      <trkpt lat="51.868930" lon="10.683257">
        <ele>239.639443</ele>
        <time>2022-09-12T07:23:29.346Z</time>
      </trkpt>
      <trkpt lat="51.868935" lon="10.683183">
        <ele>239.678976</ele>
        <time>2022-09-12T07:23:33.947Z</time>
      </trkpt>
      <trkpt lat="51.868904" lon="10.683116">
        <ele>239.723437</ele>
        <time>2022-09-12T07:23:39.127Z</time>
      </trkpt>
      <trkpt lat="51.868860" lon="10.683086">
        <ele>239.764496</ele>
        <time>2022-09-12T07:23:43.903Z</time>
      </trkpt>
      <trkpt lat="51.868810" lon="10.683057">
        <ele>239.819335</ele>
        <time>2022-09-12T07:23:49.222Z</time>
      </trkpt>
      <trkpt lat="51.868748" lon="10.682997">
        <ele>239.951614</ele>
        <time>2022-09-12T07:23:56.447Z</time>
      </trkpt>
      <trkpt lat="51.868700" lon="10.682945">
        <ele>240.057379</ele>
        <time>2022-09-12T07:24:02.231Z</time>
      </trkpt>
      <trkpt lat="51.868652" lon="10.682918">
        <ele>240.150441</ele>
        <time>2022-09-12T07:24:07.319Z</time>
      </trkpt>
      <trkpt lat="51.868607" lon="10.682892">
        <ele>240.237945</ele>
        <time>2022-09-12T07:24:12.102Z</time>
      </trkpt>
      <trkpt lat="51.868565" lon="10.682865">
        <ele>240.320705</ele>
        <time>2022-09-12T07:24:16.625Z</time>
      </trkpt>
      <trkpt lat="51.868526" lon="10.682805">
        <ele>240.419223</ele>
        <time>2022-09-12T07:24:22.008Z</time>
      </trkpt>
      <trkpt lat="51.868477" lon="10.682784">
        <ele>240.512053</ele>
        <time>2022-09-12T07:24:27.084Z</time>
      </trkpt>
      <trkpt lat="51.868427" lon="10.682796">
        <ele>240.604627</ele>
        <time>2022-09-12T07:24:32.138Z</time>
      </trkpt>
      <trkpt lat="51.868380" lon="10.682820">
        <ele>240.694883</ele>
        <time>2022-09-12T07:24:37.073Z</time>
      </trkpt>
      <trkpt lat="51.868332" lon="10.682838">
        <ele>240.785119</ele>
        <time>2022-09-12T07:24:41.999Z</time>
      </trkpt>
      <trkpt lat="51.868275" lon="10.682847">
        <ele>240.890008</ele>
        <time>2022-09-12T07:24:47.731Z</time>
      </trkpt>
      <trkpt lat="51.868230" lon="10.682905">
        <ele>240.995339</ele>
        <time>2022-09-12T07:24:53.490Z</time>
      </trkpt>
      <trkpt lat="51.868187" lon="10.682940">
        <ele>241.083479</ele>
        <time>2022-09-12T07:24:58.308Z</time>
      </trkpt>
      <trkpt lat="51.868140" lon="10.682925">
        <ele>241.171213</ele>
        <time>2022-09-12T07:25:03.105Z</time>
      </trkpt>
      <trkpt lat="51.868107" lon="10.682978">
        <ele>241.256332</ele>
        <time>2022-09-12T07:25:07.757Z</time>
      </trkpt>
      <trkpt lat="51.868107" lon="10.682993">
        <ele>241.273295</ele>
        <time>2022-09-12T07:25:08.685Z</time>
      </trkpt>
      <trkpt lat="51.868057" lon="10.683052">
        <ele>241.386598</ele>
        <time>2022-09-12T07:25:14.873Z</time>
      </trkpt>
      <trkpt lat="51.868058" lon="10.683163">
        <ele>241.512139</ele>
        <time>2022-09-12T07:25:21.709Z</time>
      </trkpt>
      <trkpt lat="51.868011" lon="10.683159">
        <ele>241.598337</ele>
        <time>2022-09-12T07:25:27.192Z</time>
      </trkpt>
      <trkpt lat="51.867557" lon="10.682215">
        <ele>242.951501</ele>
        <time>2022-09-12T07:26:45.850Z</time>
      </trkpt>
      <trkpt lat="51.867547" lon="10.682196">
        <ele>242.979734</ele>
        <time>2022-09-12T07:26:47.430Z</time>
      </trkpt>
      <trkpt lat="51.867508" lon="10.682132">
        <ele>243.081421</ele>
        <time>2022-09-12T07:26:53.272Z</time>
      </trkpt>
      <trkpt lat="51.867413" lon="10.681975">
        <ele>243.322462</ele>
        <time>2022-09-12T07:27:07.388Z</time>
      </trkpt>
      <trkpt lat="51.867290" lon="10.681794">
        <ele>243.617013</ele>
        <time>2022-09-12T07:27:25.009Z</time>
      </trkpt>
      <trkpt lat="51.867037" lon="10.681354">
        <ele>244.274993</ele>
        <time>2022-09-12T07:28:04.263Z</time>
      </trkpt>
      <trkpt lat="51.866989" lon="10.681308">
        <ele>244.373844</ele>
        <time>2022-09-12T07:28:10.211Z</time>
      </trkpt>
      <trkpt lat="51.866449" lon="10.680766">
        <ele>245.499816</ele>
        <time>2022-09-12T07:29:17.767Z</time>
      </trkpt>
      <trkpt lat="51.866361" lon="10.680685">
        <ele>245.679214</ele>
        <time>2022-09-12T07:29:28.559Z</time>
      </trkpt>
      <trkpt lat="51.866268" lon="10.680604">
        <ele>245.866367</ele>
        <time>2022-09-12T07:29:39.835Z</time>
      </trkpt>
      <trkpt lat="51.866264" lon="10.680369">
        <ele>246.123653</ele>
        <time>2022-09-12T07:29:55.408Z</time>
      </trkpt>
      <trkpt lat="51.866225" lon="10.680335">
        <ele>246.202153</ele>
        <time>2022-09-12T07:30:00.175Z</time>
      </trkpt>
      <trkpt lat="51.866040" lon="10.680205">
        <ele>246.676358</ele>
        <time>2022-09-12T07:30:21.707Z</time>
      </trkpt>
      <trkpt lat="51.866009" lon="10.680181">
        <ele>246.763066</ele>
        <time>2022-09-12T07:30:25.433Z</time>
      </trkpt>
      <trkpt lat="51.865831" lon="10.680042">
        <ele>247.261739</ele>
        <time>2022-09-12T07:30:46.729Z</time>
      </trkpt>
      <trkpt lat="51.865854" lon="10.679943">
        <ele>247.426564</ele>
        <time>2022-09-12T07:30:53.691Z</time>
      </trkpt>
      <trkpt lat="51.865819" lon="10.679885">
        <ele>247.552933</ele>
        <time>2022-09-12T07:30:59.048Z</time>
      </trkpt>
      <trkpt lat="51.865838" lon="10.679779">
        <ele>247.724926</ele>
        <time>2022-09-12T07:31:06.387Z</time>
      </trkpt>
      <trkpt lat="51.865714" lon="10.679378">
        <ele>248.423758</ele>
        <time>2022-09-12T07:31:36.509Z</time>
      </trkpt>
      <trkpt lat="51.865458" lon="10.679074">
        <ele>249.224840</ele>
        <time>2022-09-12T07:32:11.370Z</time>
      </trkpt>
      <trkpt lat="51.865201" lon="10.678399">
        <ele>250.460539</ele>
        <time>2022-09-12T07:33:05.486Z</time>
      </trkpt>
      <trkpt lat="51.865142" lon="10.678123">
        <ele>250.919920</ele>
        <time>2022-09-12T07:33:25.446Z</time>
      </trkpt>
      <trkpt lat="51.864914" lon="10.677564">
        <ele>252.011702</ele>
        <time>2022-09-12T07:34:10.986Z</time>
      </trkpt>
      <trkpt lat="51.864785" lon="10.677295">
        <ele>252.566761</ele>
        <time>2022-09-12T07:34:34.061Z</time>
      </trkpt>
      <trkpt lat="51.864710" lon="10.677145">
        <ele>252.881303</ele>
        <time>2022-09-12T07:34:47.121Z</time>
      </trkpt>
      <trkpt lat="51.864662" lon="10.677167">
        <ele>253.012956</ele>
        <time>2022-09-12T07:34:52.613Z</time>
      </trkpt>
      <trkpt lat="51.864618" lon="10.677219">
        <ele>253.156713</ele>
        <time>2022-09-12T07:34:58.460Z</time>
      </trkpt>
      <trkpt lat="51.864471" lon="10.677338">
        <ele>253.590437</ele>
        <time>2022-09-12T07:35:16.395Z</time>
      </trkpt>
      <trkpt lat="51.864304" lon="10.677307">
        <ele>254.034056</ele>
        <time>2022-09-12T07:35:34.647Z</time>
      </trkpt>
      <trkpt lat="51.864181" lon="10.677079">
        <ele>254.527455</ele>
        <time>2022-09-12T07:35:54.973Z</time>
      </trkpt>
      <trkpt lat="51.864095" lon="10.677078">
        <ele>254.754425</ele>
        <time>2022-09-12T07:36:04.357Z</time>
      </trkpt>
      <trkpt lat="51.864054" lon="10.677078">
        <ele>254.862629</ele>
        <time>2022-09-12T07:36:08.875Z</time>
      </trkpt>
      <trkpt lat="51.863994" lon="10.677077">
        <ele>255.020984</ele>
        <time>2022-09-12T07:36:15.329Z</time>
      </trkpt>
      <trkpt lat="51.863816" lon="10.677076">
        <ele>255.490750</ele>
        <time>2022-09-12T07:36:34.624Z</time>
      </trkpt>
      <trkpt lat="51.863750" lon="10.677076">
        <ele>255.677463</ele>
        <time>2022-09-12T07:36:41.885Z</time>
      </trkpt>
      <trkpt lat="51.863646" lon="10.677067">
        <ele>255.988479</ele>
        <time>2022-09-12T07:36:53.219Z</time>
      </trkpt>
      <trkpt lat="51.863612" lon="10.677064">
        <ele>256.090163</ele>
        <time>2022-09-12T07:36:56.843Z</time>
      </trkpt>
      <trkpt lat="51.863140" lon="10.677133">
        <ele>257.505419</ele>
        <time>2022-09-12T07:37:48.796Z</time>
      </trkpt>
      <trkpt lat="51.862966" lon="10.677222">
        <ele>258.050337</ele>
        <time>2022-09-12T07:38:08.710Z</time>
      </trkpt>
      <trkpt lat="51.862798" lon="10.677294">
        <ele>258.569305</ele>
        <time>2022-09-12T07:38:27.678Z</time>
      </trkpt>
      <trkpt lat="51.862746" lon="10.677316">
        <ele>258.729804</ele>
        <time>2022-09-12T07:38:33.433Z</time>
      </trkpt>
      <trkpt lat="51.862600" lon="10.677323">
        <ele>259.165992</ele>
        <time>2022-09-12T07:38:49.337Z</time>
      </trkpt>
      <trkpt lat="51.862540" lon="10.677324">
        <ele>259.345178</ele>
        <time>2022-09-12T07:38:56.048Z</time>
      </trkpt>
      <trkpt lat="51.862321" lon="10.677324">
        <ele>259.999173</ele>
        <time>2022-09-12T07:39:20.122Z</time>
      </trkpt>
      <trkpt lat="51.861982" lon="10.677277">
        <ele>261.061568</ele>
        <time>2022-09-12T07:39:58.532Z</time>
      </trkpt>
      <trkpt lat="51.861774" lon="10.677219">
        <ele>262.084980</ele>
        <time>2022-09-12T07:40:23.375Z</time>
      </trkpt>
      <trkpt lat="51.861275" lon="10.676894">
        <ele>264.692958</ele>
        <time>2022-09-12T07:41:26.483Z</time>
      </trkpt>
      <trkpt lat="51.861006" lon="10.676988">
        <ele>266.027333</ele>
        <time>2022-09-12T07:41:58.779Z</time>
      </trkpt>
      <trkpt lat="51.860760" lon="10.677117">
        <ele>267.281148</ele>
        <time>2022-09-12T07:42:29.044Z</time>
      </trkpt>
      <trkpt lat="51.860640" lon="10.677188">
        <ele>267.900641</ele>
        <time>2022-09-12T07:42:43.959Z</time>
      </trkpt>
      <trkpt lat="51.860401" lon="10.677335">
        <ele>269.140311</ele>
        <time>2022-09-12T07:43:14.166Z</time>
      </trkpt>
      <trkpt lat="51.860235" lon="10.677385">
        <ele>269.965931</ele>
        <time>2022-09-12T07:43:34.069Z</time>
      </trkpt>
      <trkpt lat="51.859920" lon="10.677198">
        <ele>271.630570</ele>
        <time>2022-09-12T07:44:13.815Z</time>
      </trkpt>
      <trkpt lat="51.859742" lon="10.677049">
        <ele>272.624774</ele>
        <time>2022-09-12T07:44:37.712Z</time>
      </trkpt>
      <trkpt lat="51.859417" lon="10.676447">
        <ele>275.074891</ele>
        <time>2022-09-12T07:45:37.399Z</time>
      </trkpt>
      <trkpt lat="51.858367" lon="10.675423">
        <ele>280.181326</ele>
        <time>2022-09-12T07:47:57.119Z</time>
      </trkpt>
      <trkpt lat="51.858352" lon="10.675409">
        <ele>280.234633</ele>
        <time>2022-09-12T07:47:59.098Z</time>
      </trkpt>
      <trkpt lat="51.858212" lon="10.675285">
        <ele>280.725950</ele>
        <time>2022-09-12T07:48:17.228Z</time>
      </trkpt>
      <trkpt lat="51.858119" lon="10.675237">
        <ele>281.026479</ele>
        <time>2022-09-12T07:48:28.189Z</time>
      </trkpt>
      <trkpt lat="51.857625" lon="10.674775">
        <ele>282.782923</ele>
        <time>2022-09-12T07:49:31.919Z</time>
      </trkpt>
      <trkpt lat="51.857564" lon="10.674666">
        <ele>283.062625</ele>
        <time>2022-09-12T07:49:41.710Z</time>
      </trkpt>
      <trkpt lat="51.857543" lon="10.674636">
        <ele>283.148850</ele>
        <time>2022-09-12T07:49:44.678Z</time>
      </trkpt>
      <trkpt lat="51.857438" lon="10.674503">
        <ele>283.559304</ele>
        <time>2022-09-12T07:49:59.035Z</time>
      </trkpt>
      <trkpt lat="51.857328" lon="10.674409">
        <ele>283.942254</ele>
        <time>2022-09-12T07:50:12.507Z</time>
      </trkpt>
      <trkpt lat="51.857037" lon="10.674157">
        <ele>284.474843</ele>
        <time>2022-09-12T07:50:46.988Z</time>
      </trkpt>
      <trkpt lat="51.857001" lon="10.674121">
        <ele>284.529602</ele>
        <time>2022-09-12T07:50:51.338Z</time>
      </trkpt>
      <trkpt lat="51.856633" lon="10.673772">
        <ele>285.081538</ele>
        <time>2022-09-12T07:51:34.550Z</time>
      </trkpt>
      <trkpt lat="51.856506" lon="10.673649">
        <ele>285.273057</ele>
        <time>2022-09-12T07:51:49.551Z</time>
      </trkpt>
      <trkpt lat="51.856415" lon="10.673562">
        <ele>285.409825</ele>
        <time>2022-09-12T07:52:00.488Z</time>
      </trkpt>
      <trkpt lat="51.856327" lon="10.673477">
        <ele>285.542438</ele>
        <time>2022-09-12T07:52:10.740Z</time>
      </trkpt>
      <trkpt lat="51.855770" lon="10.672840">
        <ele>286.424976</ele>
        <time>2022-09-12T07:53:22.427Z</time>
      </trkpt>
      <trkpt lat="51.855397" lon="10.672368">
        <ele>288.250059</ele>
        <time>2022-09-12T07:54:13.992Z</time>
      </trkpt>
      <trkpt lat="51.855344" lon="10.672301">
        <ele>288.517235</ele>
        <time>2022-09-12T07:54:21.484Z</time>
      </trkpt>
      <trkpt lat="51.855277" lon="10.672217">
        <ele>288.853935</ele>
        <time>2022-09-12T07:54:30.923Z</time>
      </trkpt>
      <trkpt lat="51.854984" lon="10.671821">
        <ele>290.370448</ele>
        <time>2022-09-12T07:55:14.559Z</time>
      </trkpt>
      <trkpt lat="51.854926" lon="10.671741">
        <ele>290.673194</ele>
        <time>2022-09-12T07:55:23.477Z</time>
      </trkpt>
      <trkpt lat="51.854910" lon="10.671718">
        <ele>290.758210</ele>
        <time>2022-09-12T07:55:25.994Z</time>
      </trkpt>
      <trkpt lat="51.854871" lon="10.671663">
        <ele>290.963714</ele>
        <time>2022-09-12T07:55:32.101Z</time>
      </trkpt>
      <trkpt lat="51.854812" lon="10.671582">
        <ele>291.271078</ele>
        <time>2022-09-12T07:55:41.025Z</time>
      </trkpt>
      <trkpt lat="51.854729" lon="10.671470">
        <ele>291.700393</ele>
        <time>2022-09-12T07:55:53.651Z</time>
      </trkpt>
      <trkpt lat="51.854228" lon="10.670799">
        <ele>294.465892</ele>
        <time>2022-09-12T07:57:10.943Z</time>
      </trkpt>
      <trkpt lat="51.853783" lon="10.670224">
        <ele>297.328955</ele>
        <time>2022-09-12T07:58:18.942Z</time>
      </trkpt>
      <trkpt lat="51.853419" lon="10.669851">
        <ele>299.495216</ele>
        <time>2022-09-12T07:59:09.712Z</time>
      </trkpt>
      <trkpt lat="51.853195" lon="10.669618">
        <ele>300.834083</ele>
        <time>2022-09-12T07:59:41.005Z</time>
      </trkpt>
      <trkpt lat="51.853152" lon="10.669574">
        <ele>301.089884</ele>
        <time>2022-09-12T07:59:46.822Z</time>
      </trkpt>
      <trkpt lat="51.852870" lon="10.669281">
        <ele>302.817227</ele>
        <time>2022-09-12T08:00:25.272Z</time>
      </trkpt>
      <trkpt lat="51.852722" lon="10.669128">
        <ele>303.984591</ele>
        <time>2022-09-12T08:00:45.012Z</time>
      </trkpt>
      <trkpt lat="51.852597" lon="10.668998">
        <ele>304.972261</ele>
        <time>2022-09-12T08:01:01.616Z</time>
      </trkpt>
      <trkpt lat="51.852413" lon="10.668806">
        <ele>306.427536</ele>
        <time>2022-09-12T08:01:26.477Z</time>
      </trkpt>
      <trkpt lat="51.852404" lon="10.668800">
        <ele>306.492241</ele>
        <time>2022-09-12T08:01:27.637Z</time>
      </trkpt>
      <trkpt lat="51.852035" lon="10.668420">
        <ele>309.399537</ele>
        <time>2022-09-12T08:02:21.367Z</time>
      </trkpt>
      <trkpt lat="51.851521" lon="10.667889">
        <ele>313.452979</ele>
        <time>2022-09-12T08:03:37.986Z</time>
      </trkpt>
      <trkpt lat="51.851255" lon="10.667707">
        <ele>315.866746</ele>
        <time>2022-09-12T08:04:15.550Z</time>
      </trkpt>
      <trkpt lat="51.851032" lon="10.667547">
        <ele>318.525488</ele>
        <time>2022-09-12T08:04:49.771Z</time>
      </trkpt>
      <trkpt lat="51.850773" lon="10.667286">
        <ele>321.850875</ele>
        <time>2022-09-12T08:05:33.245Z</time>
      </trkpt>
      <trkpt lat="51.850408" lon="10.666262">
        <ele>329.811135</ele>
        <time>2022-09-12T08:07:15.266Z</time>
      </trkpt>
      <trkpt lat="51.850324" lon="10.666039">
        <ele>331.569775</ele>
        <time>2022-09-12T08:07:36.623Z</time>
      </trkpt>
      <trkpt lat="51.850270" lon="10.665890">
        <ele>332.732938</ele>
        <time>2022-09-12T08:07:52.264Z</time>
      </trkpt>
      <trkpt lat="51.850205" lon="10.665752">
        <ele>333.901419</ele>
        <time>2022-09-12T08:08:09.035Z</time>
      </trkpt>
      <trkpt lat="51.850195" lon="10.665734">
        <ele>334.064422</ele>
        <time>2022-09-12T08:08:11.217Z</time>
      </trkpt>
      <trkpt lat="51.850180" lon="10.665699">
        <ele>334.324504</ele>
        <time>2022-09-12T08:08:14.974Z</time>
      </trkpt>
      <trkpt lat="51.849995" lon="10.665323">
        <ele>336.966109</ele>
        <time>2022-09-12T08:08:55.598Z</time>
      </trkpt>
      <trkpt lat="51.849689" lon="10.664383">
        <ele>342.805185</ele>
        <time>2022-09-12T08:10:21.718Z</time>
      </trkpt>
      <trkpt lat="51.849670" lon="10.664304">
        <ele>343.271068</ele>
        <time>2022-09-12T08:10:28.442Z</time>
      </trkpt>
      <trkpt lat="51.849547" lon="10.663918">
        <ele>345.657904</ele>
        <time>2022-09-12T08:11:02.880Z</time>
      </trkpt>
      <trkpt lat="51.849531" lon="10.663874">
        <ele>345.938488</ele>
        <time>2022-09-12T08:11:06.963Z</time>
      </trkpt>
      <trkpt lat="51.849307" lon="10.663323">
        <ele>349.563375</ele>
        <time>2022-09-12T08:11:58.129Z</time>
      </trkpt>
      <trkpt lat="51.849233" lon="10.663180">
        <ele>350.448764</ele>
        <time>2022-09-12T08:12:12.161Z</time>
      </trkpt>
      <trkpt lat="51.849013" lon="10.662370">
        <ele>353.530648</ele>
        <time>2022-09-12T08:13:18.282Z</time>
      </trkpt>
      <trkpt lat="51.848999" lon="10.662291">
        <ele>353.816904</ele>
        <time>2022-09-12T08:13:24.331Z</time>
      </trkpt>
      <trkpt lat="51.848966" lon="10.662128">
        <ele>354.414347</ele>
        <time>2022-09-12T08:13:37.267Z</time>
      </trkpt>
      <trkpt lat="51.848958" lon="10.662090">
        <ele>354.554176</ele>
        <time>2022-09-12T08:13:40.217Z</time>
      </trkpt>
      <trkpt lat="51.848563" lon="10.661560">
        <ele>357.446910</ele>
        <time>2022-09-12T08:14:42.957Z</time>
      </trkpt>
      <trkpt lat="51.848249" lon="10.660996">
        <ele>360.091430</ele>
        <time>2022-09-12T08:15:36.800Z</time>
      </trkpt>
      <trkpt lat="51.847879" lon="10.660183">
        <ele>362.388102</ele>
        <time>2022-09-12T08:16:45.869Z</time>
      </trkpt>
      <trkpt lat="51.847750" lon="10.659753">
        <ele>363.429800</ele>
        <time>2022-09-12T08:17:19.175Z</time>
      </trkpt>
      <trkpt lat="51.847653" lon="10.659432">
        <ele>364.208524</ele>
        <time>2022-09-12T08:17:42.961Z</time>
      </trkpt>
      <trkpt lat="51.847496" lon="10.659081">
        <ele>365.152873</ele>
        <time>2022-09-12T08:18:12.198Z</time>
      </trkpt>
      <trkpt lat="51.847274" lon="10.658728">
        <ele>366.250618</ele>
        <time>2022-09-12T08:18:47.002Z</time>
      </trkpt>
      <trkpt lat="51.846844" lon="10.658442">
        <ele>368.743242</ele>
        <time>2022-09-12T08:19:41.358Z</time>
      </trkpt>
      <trkpt lat="51.846716" lon="10.658333">
        <ele>369.616767</ele>
        <time>2022-09-12T08:19:58.915Z</time>
      </trkpt>
      <trkpt lat="51.846589" lon="10.658005">
        <ele>371.061082</ele>
        <time>2022-09-12T08:20:27.097Z</time>
      </trkpt>
      <trkpt lat="51.846716" lon="10.658333">
        <ele>372.505397</ele>
        <time>2022-09-12T08:20:55.923Z</time>
      </trkpt>
      <trkpt lat="51.846455" lon="10.658193">
        <ele>374.166042</ele>
        <time>2022-09-12T08:21:30.095Z</time>
      </trkpt>
      <trkpt lat="51.846263" lon="10.658081">
        <ele>375.398656</ele>
        <time>2022-09-12T08:21:55.252Z</time>
      </trkpt>
      <trkpt lat="51.846128" lon="10.657979">
        <ele>376.298458</ele>
        <time>2022-09-12T08:22:14.586Z</time>
      </trkpt>
      <trkpt lat="51.845969" lon="10.657852">
        <ele>377.369312</ele>
        <time>2022-09-12T08:22:36.718Z</time>
      </trkpt>
      <trkpt lat="51.844728" lon="10.656175">
        <ele>387.449662</ele>
        <time>2022-09-12T08:25:57.944Z</time>
      </trkpt>
      <trkpt lat="51.843350" lon="10.654498">
        <ele>391.567783</ele>
        <time>2022-09-12T08:29:03.228Z</time>
      </trkpt>
      <trkpt lat="51.842940" lon="10.654077">
        <ele>392.000965</ele>
        <time>2022-09-12T08:29:52.303Z</time>
      </trkpt>
      <trkpt lat="51.842773" lon="10.653905">
        <ele>391.903272</ele>
        <time>2022-09-12T08:30:12.503Z</time>
      </trkpt>
      <trkpt lat="51.842295" lon="10.653654">
        <ele>391.655256</ele>
        <time>2022-09-12T08:31:04.435Z</time>
      </trkpt>
      <trkpt lat="51.842116" lon="10.653554">
        <ele>391.561798</ele>
        <time>2022-09-12T08:31:24.370Z</time>
      </trkpt>
      <trkpt lat="51.841202" lon="10.653327">
        <ele>391.849573</ele>
        <time>2022-09-12T08:32:57.413Z</time>
      </trkpt>
      <trkpt lat="51.840905" lon="10.652980">
        <ele>392.943557</ele>
        <time>2022-09-12T08:33:38.077Z</time>
      </trkpt>
      <trkpt lat="51.840892" lon="10.652961">
        <ele>392.995870</ele>
        <time>2022-09-12T08:33:39.842Z</time>
      </trkpt>
      <trkpt lat="51.840536" lon="10.652490">
        <ele>394.369129</ele>
        <time>2022-09-12T08:34:31.646Z</time>
      </trkpt>
      <trkpt lat="51.840195" lon="10.652150">
        <ele>395.565304</ele>
        <time>2022-09-12T08:35:17.120Z</time>
      </trkpt>
      <trkpt lat="51.839872" lon="10.651579">
        <ele>397.203437</ele>
        <time>2022-09-12T08:36:11.788Z</time>
      </trkpt>
      <trkpt lat="51.839785" lon="10.650895">
        <ele>399.149042</ele>
        <time>2022-09-12T08:37:02.178Z</time>
      </trkpt>
      <trkpt lat="51.839846" lon="10.650336">
        <ele>400.730537</ele>
        <time>2022-09-12T08:37:43.771Z</time>
      </trkpt>
      <trkpt lat="51.840207" lon="10.649061">
        <ele>404.637925</ele>
        <time>2022-09-12T08:39:22.377Z</time>
      </trkpt>
      <trkpt lat="51.840404" lon="10.646934">
        <ele>411.635137</ele>
        <time>2022-09-12T08:42:00.177Z</time>
      </trkpt>
      <trkpt lat="51.840341" lon="10.646216">
        <ele>413.997636</ele>
        <time>2022-09-12T08:42:54.233Z</time>
      </trkpt>
      <trkpt lat="51.840304" lon="10.645137">
        <ele>417.004596</ele>
        <time>2022-09-12T08:44:12.624Z</time>
      </trkpt>
      <trkpt lat="51.840427" lon="10.644749">
        <ele>418.206923</ele>
        <time>2022-09-12T08:44:44.196Z</time>
      </trkpt>
      <trkpt lat="51.840849" lon="10.643841">
        <ele>421.339495</ele>
        <time>2022-09-12T08:46:05.077Z</time>
      </trkpt>
      <trkpt lat="51.840903" lon="10.643518">
        <ele>422.259750</ele>
        <time>2022-09-12T08:46:27.548Z</time>
      </trkpt>
      <trkpt lat="51.840867" lon="10.643186">
        <ele>423.153178</ele>
        <time>2022-09-12T08:46:49.944Z</time>
      </trkpt>
      <trkpt lat="51.840834" lon="10.642939">
        <ele>423.822992</ele>
        <time>2022-09-12T08:47:06.996Z</time>
      </trkpt>
      <trkpt lat="51.840755" lon="10.642355">
        <ele>425.407575</ele>
        <time>2022-09-12T08:47:48.773Z</time>
      </trkpt>
      <trkpt lat="51.840774" lon="10.642110">
        <ele>426.062053</ele>
        <time>2022-09-12T08:48:06.036Z</time>
      </trkpt>
      <trkpt lat="51.840852" lon="10.641594">
        <ele>427.470071</ele>
        <time>2022-09-12T08:48:44.134Z</time>
      </trkpt>
      <trkpt lat="51.840840" lon="10.641190">
        <ele>428.542125</ele>
        <time>2022-09-12T08:49:13.568Z</time>
      </trkpt>
      <trkpt lat="51.840720" lon="10.640521">
        <ele>430.813065</ele>
        <time>2022-09-12T08:50:04.296Z</time>
      </trkpt>
      <trkpt lat="51.840491" lon="10.640530">
        <ele>432.683924</ele>
        <time>2022-09-12T08:50:38.661Z</time>
      </trkpt>
      <trkpt lat="51.839981" lon="10.640829">
        <ele>437.114089</ele>
        <time>2022-09-12T08:52:03.402Z</time>
      </trkpt>
      <trkpt lat="51.839839" lon="10.640848">
        <ele>438.277800</ele>
        <time>2022-09-12T08:52:26.871Z</time>
      </trkpt>
      <trkpt lat="51.839229" lon="10.640173">
        <ele>444.312967</ele>
        <time>2022-09-12T08:54:30.468Z</time>
      </trkpt>
      <trkpt lat="51.838862" lon="10.639954">
        <ele>448.463154</ele>
        <time>2022-09-12T08:55:34.806Z</time>
      </trkpt>
      <trkpt lat="51.838838" lon="10.639940">
        <ele>448.740196</ele>
        <time>2022-09-12T08:55:39.166Z</time>
      </trkpt>
      <trkpt lat="51.838678" lon="10.639872">
        <ele>450.536640</ele>
        <time>2022-09-12T08:56:01.502Z</time>
      </trkpt>
      <trkpt lat="51.838664" lon="10.639871">
        <ele>450.688823</ele>
        <time>2022-09-12T08:56:03.633Z</time>
      </trkpt>
      <trkpt lat="51.838350" lon="10.639765">
        <ele>454.172123</ele>
        <time>2022-09-12T08:56:57.943Z</time>
      </trkpt>
      <trkpt lat="51.838207" lon="10.639838">
        <ele>455.800464</ele>
        <time>2022-09-12T08:57:22.521Z</time>
      </trkpt>
      <trkpt lat="51.838049" lon="10.639937">
        <ele>457.640383</ele>
        <time>2022-09-12T08:57:51.701Z</time>
      </trkpt>
      <trkpt lat="51.837873" lon="10.640248">
        <ele>460.470190</ele>
        <time>2022-09-12T08:58:35.754Z</time>
      </trkpt>
      <trkpt lat="51.837282" lon="10.640616">
        <ele>467.701493</ele>
        <time>2022-09-12T09:00:35.800Z</time>
      </trkpt>
      <trkpt lat="51.836951" lon="10.640823">
        <ele>471.981406</ele>
        <time>2022-09-12T09:01:39.525Z</time>
      </trkpt>
      <trkpt lat="51.836946" lon="10.640877">
        <ele>472.388338</ele>
        <time>2022-09-12T09:01:45.020Z</time>
      </trkpt>
      <trkpt lat="51.836957" lon="10.641007">
        <ele>473.366213</ele>
        <time>2022-09-12T09:01:55.693Z</time>
      </trkpt>
      <trkpt lat="51.836956" lon="10.641052">
        <ele>473.701795</ele>
        <time>2022-09-12T09:01:59.439Z</time>
      </trkpt>
      <trkpt lat="51.836865" lon="10.641326">
        <ele>476.020073</ele>
        <time>2022-09-12T09:02:27.159Z</time>
      </trkpt>
      <trkpt lat="51.836574" lon="10.641334">
        <ele>479.530355</ele>
        <time>2022-09-12T09:03:06.862Z</time>
      </trkpt>
      <trkpt lat="51.836206" lon="10.641643">
        <ele>484.530686</ele>
        <time>2022-09-12T09:04:23.002Z</time>
      </trkpt>
      <trkpt lat="51.835548" lon="10.641849">
        <ele>493.130193</ele>
        <time>2022-09-12T09:06:26.960Z</time>
      </trkpt>
      <trkpt lat="51.834751" lon="10.641662">
        <ele>503.582980</ele>
        <time>2022-09-12T09:09:05.420Z</time>
      </trkpt>
      <trkpt lat="51.834094" lon="10.641283">
        <ele>512.130144</ele>
        <time>2022-09-12T09:11:09.134Z</time>
      </trkpt>
      <trkpt lat="51.833533" lon="10.640315">
        <ele>521.215944</ele>
        <time>2022-09-12T09:13:34.139Z</time>
      </trkpt>
      <trkpt lat="51.833127" lon="10.639939">
        <ele>526.398615</ele>
        <time>2022-09-12T09:14:53.496Z</time>
      </trkpt>
      <trkpt lat="51.832802" lon="10.639294">
        <ele>531.235431</ele>
        <time>2022-09-12T09:16:17.993Z</time>
      </trkpt>
      <trkpt lat="51.832673" lon="10.638817">
        <ele>533.773143</ele>
        <time>2022-09-12T09:17:09.877Z</time>
      </trkpt>
      <trkpt lat="51.831536" lon="10.638142">
        <ele>543.313365</ele>
        <time>2022-09-12T09:20:19.526Z</time>
      </trkpt>
      <trkpt lat="51.831000" lon="10.637484">
        <ele>546.625203</ele>
        <time>2022-09-12T09:22:00.773Z</time>
      </trkpt>
      <trkpt lat="51.830447" lon="10.637139">
        <ele>549.542685</ele>
        <time>2022-09-12T09:23:27.194Z</time>
      </trkpt>
      <trkpt lat="51.830323" lon="10.636966">
        <ele>550.348636</ele>
        <time>2022-09-12T09:23:50.578Z</time>
      </trkpt>
      <trkpt lat="51.829753" lon="10.635678">
        <ele>553.527899</ele>
        <time>2022-09-12T09:26:06.583Z</time>
      </trkpt>
      <trkpt lat="51.829293" lon="10.635160">
        <ele>554.788569</ele>
        <time>2022-09-12T09:27:22.001Z</time>
      </trkpt>
      <trkpt lat="51.829103" lon="10.634827">
        <ele>555.418631</ele>
        <time>2022-09-12T09:27:58.543Z</time>
      </trkpt>
      <trkpt lat="51.828802" lon="10.634856">
        <ele>556.096922</ele>
        <time>2022-09-12T09:28:30.625Z</time>
      </trkpt>
      <trkpt lat="51.828706" lon="10.634899">
        <ele>556.221967</ele>
        <time>2022-09-12T09:28:41.095Z</time>
      </trkpt>
      <trkpt lat="51.828697" lon="10.634948">
        <ele>556.237716</ele>
        <time>2022-09-12T09:28:44.272Z</time>
      </trkpt>
      <trkpt lat="51.828648" lon="10.634969">
        <ele>556.262986</ele>
        <time>2022-09-12T09:28:49.349Z</time>
      </trkpt>
      <trkpt lat="51.828630" lon="10.634886">
        <ele>556.290086</ele>
        <time>2022-09-12T09:28:54.789Z</time>
      </trkpt>
      <trkpt lat="51.828630" lon="10.634812">
        <ele>556.312885</ele>
        <time>2022-09-12T09:28:59.367Z</time>
      </trkpt>
      <trkpt lat="51.828670" lon="10.634767">
        <ele>556.337172</ele>
        <time>2022-09-12T09:29:04.241Z</time>
      </trkpt>
      <trkpt lat="51.828680" lon="10.634844">
        <ele>556.361413</ele>
        <time>2022-09-12T09:29:09.111Z</time>
      </trkpt>
      <trkpt lat="51.828630" lon="10.634822">
        <ele>556.387244</ele>
        <time>2022-09-12T09:29:14.300Z</time>
      </trkpt>
      <trkpt lat="51.828632" lon="10.634837">
        <ele>556.391972</ele>
        <time>2022-09-12T09:29:15.249Z</time>
      </trkpt>
      <trkpt lat="51.828680" lon="10.634863">
        <ele>556.417206</ele>
        <time>2022-09-12T09:29:20.318Z</time>
      </trkpt>
      <trkpt lat="51.828636" lon="10.634879">
        <ele>556.439687</ele>
        <time>2022-09-12T09:29:24.833Z</time>
      </trkpt>
      <trkpt lat="51.828667" lon="10.634853">
        <ele>556.457094</ele>
        <time>2022-09-12T09:29:28.331Z</time>
      </trkpt>
      <trkpt lat="51.828674" lon="10.634864">
        <ele>556.461959</ele>
        <time>2022-09-12T09:29:29.307Z</time>
      </trkpt>
      <trkpt lat="51.828674" lon="10.634903">
        <ele>556.473974</ele>
        <time>2022-09-12T09:29:31.717Z</time>
      </trkpt>
      <trkpt lat="51.828690" lon="10.634936">
        <ele>556.486896</ele>
        <time>2022-09-12T09:29:34.313Z</time>
      </trkpt>
      <trkpt lat="51.828650" lon="10.634890">
        <ele>556.511360</ele>
        <time>2022-09-12T09:29:39.224Z</time>
      </trkpt>
      <trkpt lat="51.828644" lon="10.634890">
        <ele>556.514351</ele>
        <time>2022-09-12T09:29:39.828Z</time>
      </trkpt>
      <trkpt lat="51.828617" lon="10.634834">
        <ele>556.536234</ele>
        <time>2022-09-12T09:29:44.220Z</time>
      </trkpt>
      <trkpt lat="51.828640" lon="10.634845">
        <ele>556.548190</ele>
        <time>2022-09-12T09:29:46.624Z</time>
      </trkpt>
      <trkpt lat="51.828660" lon="10.634810">
        <ele>556.562876</ele>
        <time>2022-09-12T09:29:49.571Z</time>
      </trkpt>
      <trkpt lat="51.828617" lon="10.634839">
        <ele>556.586100</ele>
        <time>2022-09-12T09:29:54.233Z</time>
      </trkpt>
      <trkpt lat="51.828644" lon="10.634904">
        <ele>556.610229</ele>
        <time>2022-09-12T09:29:59.079Z</time>
      </trkpt>
      <trkpt lat="51.828650" lon="10.634980">
        <ele>556.633834</ele>
        <time>2022-09-12T09:30:03.819Z</time>
      </trkpt>
      <trkpt lat="51.828693" lon="10.635016">
        <ele>556.657970</ele>
        <time>2022-09-12T09:30:08.664Z</time>
      </trkpt>
      <trkpt lat="51.828710" lon="10.635004">
        <ele>556.667216</ele>
        <time>2022-09-12T09:30:10.521Z</time>
      </trkpt>
      <trkpt lat="51.828705" lon="10.635032">
        <ele>556.676196</ele>
        <time>2022-09-12T09:30:12.324Z</time>
      </trkpt>
      <trkpt lat="51.828682" lon="10.634964">
        <ele>556.700078</ele>
        <time>2022-09-12T09:30:17.116Z</time>
      </trkpt>
      <trkpt lat="51.828686" lon="10.634990">
        <ele>556.708333</ele>
        <time>2022-09-12T09:30:18.771Z</time>
      </trkpt>
      <trkpt lat="51.828674" lon="10.634925">
        <ele>556.729233</ele>
        <time>2022-09-12T09:30:22.969Z</time>
      </trkpt>
      <trkpt lat="51.828693" lon="10.634939">
        <ele>556.739641</ele>
        <time>2022-09-12T09:30:25.061Z</time>
      </trkpt>
      <trkpt lat="51.828667" lon="10.634923">
        <ele>556.753508</ele>
        <time>2022-09-12T09:30:27.841Z</time>
      </trkpt>
      <trkpt lat="51.828660" lon="10.634949">
        <ele>556.762246</ele>
        <time>2022-09-12T09:30:29.596Z</time>
      </trkpt>
      <trkpt lat="51.828674" lon="10.634991">
        <ele>556.776948</ele>
        <time>2022-09-12T09:30:32.548Z</time>
      </trkpt>
      <trkpt lat="51.828663" lon="10.635051">
        <ele>556.796229</ele>
        <time>2022-09-12T09:30:36.420Z</time>
      </trkpt>
      <trkpt lat="51.828693" lon="10.635030">
        <ele>556.812524</ele>
        <time>2022-09-12T09:30:39.693Z</time>
      </trkpt>
      <trkpt lat="51.828693" lon="10.635030">
        <ele>556.812524</ele>
        <time>2022-09-12T09:30:39.693Z</time>
      </trkpt>
      <trkpt lat="51.828680" lon="10.634987">
        <ele>556.827272</ele>
        <time>2022-09-12T09:30:42.653Z</time>
      </trkpt>
      <trkpt lat="51.828644" lon="10.635004">
        <ele>556.845968</ele>
        <time>2022-09-12T09:30:46.411Z</time>
      </trkpt>
      <trkpt lat="51.828655" lon="10.634987">
        <ele>556.853551</ele>
        <time>2022-09-12T09:30:47.938Z</time>
      </trkpt>
      <trkpt lat="51.828693" lon="10.635028">
        <ele>556.876320</ele>
        <time>2022-09-12T09:30:52.506Z</time>
      </trkpt>
      <trkpt lat="51.828730" lon="10.635080">
        <ele>556.900751</ele>
        <time>2022-09-12T09:30:57.410Z</time>
      </trkpt>
      <trkpt lat="51.828700" lon="10.635115">
        <ele>556.919188</ele>
        <time>2022-09-12T09:31:01.111Z</time>
      </trkpt>
      <trkpt lat="51.828680" lon="10.635038">
        <ele>556.944922</ele>
        <time>2022-09-12T09:31:06.272Z</time>
      </trkpt>
      <trkpt lat="51.828670" lon="10.634983">
        <ele>556.962585</ele>
        <time>2022-09-12T09:31:09.824Z</time>
      </trkpt>
      <trkpt lat="51.828670" lon="10.634966">
        <ele>556.967822</ele>
        <time>2022-09-12T09:31:10.871Z</time>
      </trkpt>
      <trkpt lat="51.828670" lon="10.634966">
        <ele>556.967822</ele>
        <time>2022-09-12T09:31:10.871Z</time>
      </trkpt>
      <trkpt lat="51.828674" lon="10.634970">
        <ele>556.970166</ele>
        <time>2022-09-12T09:31:11.342Z</time>
      </trkpt>
      <trkpt lat="51.828674" lon="10.634970">
        <ele>556.970166</ele>
        <time>2022-09-12T09:31:11.342Z</time>
      </trkpt>
      <trkpt lat="51.828655" lon="10.634960">
        <ele>556.980127</ele>
        <time>2022-09-12T09:31:13.336Z</time>
      </trkpt>
      <trkpt lat="51.828700" lon="10.634900">
        <ele>557.009195</ele>
        <time>2022-09-12T09:31:19.167Z</time>
      </trkpt>
      <trkpt lat="51.828650" lon="10.634809">
        <ele>557.046709</ele>
        <time>2022-09-12T09:31:26.674Z</time>
      </trkpt>
      <trkpt lat="51.828610" lon="10.634849">
        <ele>557.070151</ele>
        <time>2022-09-12T09:31:31.364Z</time>
      </trkpt>
      <trkpt lat="51.828613" lon="10.634831">
        <ele>557.075895</ele>
        <time>2022-09-12T09:31:32.516Z</time>
      </trkpt>
      <trkpt lat="51.828590" lon="10.634768">
        <ele>557.122706</ele>
        <time>2022-09-12T09:31:37.042Z</time>
      </trkpt>
      <trkpt lat="51.828568" lon="10.634695">
        <ele>557.223541</ele>
        <time>2022-09-12T09:31:42.064Z</time>
      </trkpt>
      <trkpt lat="51.828526" lon="10.634619">
        <ele>557.350121</ele>
        <time>2022-09-12T09:31:48.372Z</time>
      </trkpt>
      <trkpt lat="51.828460" lon="10.634491">
        <ele>557.557087</ele>
        <time>2022-09-12T09:31:58.680Z</time>
      </trkpt>
      <trkpt lat="51.828410" lon="10.634449">
        <ele>557.670262</ele>
        <time>2022-09-12T09:32:04.314Z</time>
      </trkpt>
      <trkpt lat="51.828365" lon="10.634336">
        <ele>557.837161</ele>
        <time>2022-09-12T09:32:12.632Z</time>
      </trkpt>
      <trkpt lat="51.828323" lon="10.634220">
        <ele>558.004077</ele>
        <time>2022-09-12T09:32:20.947Z</time>
      </trkpt>
      <trkpt lat="51.828270" lon="10.634157">
        <ele>558.136193</ele>
        <time>2022-09-12T09:32:27.533Z</time>
      </trkpt>
      <trkpt lat="51.828260" lon="10.634066">
        <ele>558.250947</ele>
        <time>2022-09-12T09:32:33.252Z</time>
      </trkpt>
      <trkpt lat="51.828230" lon="10.633986">
        <ele>558.367126</ele>
        <time>2022-09-12T09:32:39.039Z</time>
      </trkpt>
      <trkpt lat="51.828220" lon="10.633913">
        <ele>558.459959</ele>
        <time>2022-09-12T09:32:43.664Z</time>
      </trkpt>
      <trkpt lat="51.828255" lon="10.633834">
        <ele>558.580641</ele>
        <time>2022-09-12T09:32:49.676Z</time>
      </trkpt>
      <trkpt lat="51.828330" lon="10.633849">
        <ele>558.732457</ele>
        <time>2022-09-12T09:32:57.241Z</time>
      </trkpt>
      <trkpt lat="51.828400" lon="10.633865">
        <ele>558.874478</ele>
        <time>2022-09-12T09:33:04.316Z</time>
      </trkpt>
      <trkpt lat="51.828484" lon="10.633867">
        <ele>559.043246</ele>
        <time>2022-09-12T09:33:12.725Z</time>
      </trkpt>
      <trkpt lat="51.828550" lon="10.633954">
        <ele>559.214264</ele>
        <time>2022-09-12T09:33:21.250Z</time>
      </trkpt>
      <trkpt lat="51.828625" lon="10.634049">
        <ele>559.405608</ele>
        <time>2022-09-12T09:33:30.783Z</time>
      </trkpt>
      <trkpt lat="51.828724" lon="10.634213">
        <ele>559.690236</ele>
        <time>2022-09-12T09:33:44.944Z</time>
      </trkpt>
      <trkpt lat="51.828754" lon="10.634339">
        <ele>559.857879</ele>
        <time>2022-09-12T09:33:53.326Z</time>
      </trkpt>
      <trkpt lat="51.828690" lon="10.634349">
        <ele>559.987048</ele>
        <time>2022-09-12T09:33:59.766Z</time>
      </trkpt>
      <trkpt lat="51.828640" lon="10.634413">
        <ele>560.115123</ele>
        <time>2022-09-12T09:34:06.145Z</time>
      </trkpt>
      <trkpt lat="51.828620" lon="10.634510">
        <ele>560.242078</ele>
        <time>2022-09-12T09:34:12.470Z</time>
      </trkpt>
      <trkpt lat="51.828632" lon="10.634605">
        <ele>560.362464</ele>
        <time>2022-09-12T09:34:18.474Z</time>
      </trkpt>
      <trkpt lat="51.828644" lon="10.634714">
        <ele>560.499923</ele>
        <time>2022-09-12T09:34:25.325Z</time>
      </trkpt>
      <trkpt lat="51.828710" lon="10.634728">
        <ele>560.633646</ele>
        <time>2022-09-12T09:34:31.994Z</time>
      </trkpt>
      <trkpt lat="51.828667" lon="10.634806">
        <ele>560.870857</ele>
        <time>2022-09-12T09:34:38.463Z</time>
      </trkpt>
      <trkpt lat="51.828706" lon="10.634899">
        <ele>561.261727</ele>
        <time>2022-09-12T09:34:45.426Z</time>
      </trkpt>
      <trkpt lat="51.828683" lon="10.635304">
        <ele>562.676182</ele>
        <time>2022-09-12T09:35:15.020Z</time>
      </trkpt>
      <trkpt lat="51.828715" lon="10.635482">
        <ele>563.320895</ele>
        <time>2022-09-12T09:35:28.425Z</time>
      </trkpt>
      <trkpt lat="51.829227" lon="10.636345">
        <ele>567.481380</ele>
        <time>2022-09-12T09:36:58.257Z</time>
      </trkpt>
      <trkpt lat="51.829469" lon="10.636942">
        <ele>569.964391</ele>
        <time>2022-09-12T09:37:53.119Z</time>
      </trkpt>
      <trkpt lat="51.829492" lon="10.637356">
        <ele>571.241343</ele>
        <time>2022-09-12T09:38:24.776Z</time>
      </trkpt>
      <trkpt lat="51.829442" lon="10.638145">
        <ele>573.203807</ele>
        <time>2022-09-12T09:39:22.219Z</time>
      </trkpt>
      <trkpt lat="51.829480" lon="10.638951">
        <ele>575.203892</ele>
        <time>2022-09-12T09:40:19.707Z</time>
      </trkpt>
      <trkpt lat="51.829658" lon="10.639679">
        <ele>577.141037</ele>
        <time>2022-09-12T09:41:13.850Z</time>
      </trkpt>
      <trkpt lat="51.830272" lon="10.640095">
        <ele>577.956528</ele>
        <time>2022-09-12T09:42:23.620Z</time>
      </trkpt>
      <trkpt lat="51.831281" lon="10.640496">
        <ele>577.792424</ele>
        <time>2022-09-12T09:44:09.010Z</time>
      </trkpt>
      <trkpt lat="51.831533" lon="10.640722">
        <ele>577.746917</ele>
        <time>2022-09-12T09:44:38.808Z</time>
      </trkpt>
      <trkpt lat="51.831807" lon="10.641472">
        <ele>576.800413</ele>
        <time>2022-09-12T09:45:34.631Z</time>
      </trkpt>
      <trkpt lat="51.832175" lon="10.641861">
        <ele>575.990402</ele>
        <time>2022-09-12T09:46:20.340Z</time>
      </trkpt>
      <trkpt lat="51.832232" lon="10.642177">
        <ele>575.615532</ele>
        <time>2022-09-12T09:46:41.456Z</time>
      </trkpt>
      <trkpt lat="51.832253" lon="10.642722">
        <ele>574.993693</ele>
        <time>2022-09-12T09:47:16.681Z</time>
      </trkpt>
      <trkpt lat="51.832502" lon="10.644123">
        <ele>573.156805</ele>
        <time>2022-09-12T09:48:50.623Z</time>
      </trkpt>
      <trkpt lat="51.832569" lon="10.644260">
        <ele>572.925712</ele>
        <time>2022-09-12T09:49:01.775Z</time>
      </trkpt>
      <trkpt lat="51.833113" lon="10.644764">
        <ele>571.583986</ele>
        <time>2022-09-12T09:50:07.354Z</time>
      </trkpt>
      <trkpt lat="51.833306" lon="10.644849">
        <ele>571.155856</ele>
        <time>2022-09-12T09:50:28.237Z</time>
      </trkpt>
      <trkpt lat="51.833729" lon="10.644932">
        <ele>570.280584</ele>
        <time>2022-09-12T09:51:13.044Z</time>
      </trkpt>
      <trkpt lat="51.834107" lon="10.644899">
        <ele>569.559396</ele>
        <time>2022-09-12T09:51:52.665Z</time>
      </trkpt>
      <trkpt lat="51.834815" lon="10.645123">
        <ele>568.185025</ele>
        <time>2022-09-12T09:53:07.766Z</time>
      </trkpt>
      <trkpt lat="51.835217" lon="10.645327">
        <ele>567.382390</ele>
        <time>2022-09-12T09:53:51.309Z</time>
      </trkpt>
      <trkpt lat="51.835311" lon="10.645537">
        <ele>567.098260</ele>
        <time>2022-09-12T09:54:07.757Z</time>
      </trkpt>
      <trkpt lat="51.835321" lon="10.645676">
        <ele>566.980280</ele>
        <time>2022-09-12T09:54:16.632Z</time>
      </trkpt>
      <trkpt lat="51.835240" lon="10.646316">
        <ele>566.429505</ele>
        <time>2022-09-12T09:54:58.573Z</time>
      </trkpt>
      <trkpt lat="51.835222" lon="10.647130">
        <ele>565.742796</ele>
        <time>2022-09-12T09:55:50.497Z</time>
      </trkpt>
      <trkpt lat="51.834800" lon="10.647892">
        <ele>564.880108</ele>
        <time>2022-09-12T09:56:54.804Z</time>
      </trkpt>
      <trkpt lat="51.834692" lon="10.648153">
        <ele>564.572531</ele>
        <time>2022-09-12T09:57:14.953Z</time>
      </trkpt>
      <trkpt lat="51.834575" lon="10.648699">
        <ele>563.832159</ele>
        <time>2022-09-12T09:57:51.732Z</time>
      </trkpt>
      <trkpt lat="51.834474" lon="10.649559">
        <ele>562.710647</ele>
        <time>2022-09-12T09:58:47.525Z</time>
      </trkpt>
      <trkpt lat="51.834510" lon="10.649956">
        <ele>562.196583</ele>
        <time>2022-09-12T09:59:13.463Z</time>
      </trkpt>
      <trkpt lat="51.834529" lon="10.650046">
        <ele>562.074736</ele>
        <time>2022-09-12T09:59:19.461Z</time>
      </trkpt>
      <trkpt lat="51.834532" lon="10.650115">
        <ele>561.986118</ele>
        <time>2022-09-12T09:59:23.760Z</time>
      </trkpt>
      <trkpt lat="51.835185" lon="10.650646">
        <ele>560.976153</ele>
        <time>2022-09-12T10:00:41.790Z</time>
      </trkpt>
      <trkpt lat="51.835337" lon="10.650989">
        <ele>560.984504</ele>
        <time>2022-09-12T10:01:10.410Z</time>
      </trkpt>
      <trkpt lat="51.835457" lon="10.651791">
        <ele>561.000830</ele>
        <time>2022-09-12T10:02:03.776Z</time>
      </trkpt>
      <trkpt lat="51.835396" lon="10.652149">
        <ele>561.008178</ele>
        <time>2022-09-12T10:02:27.738Z</time>
      </trkpt>
      <trkpt lat="51.835165" lon="10.652849">
        <ele>561.023879</ele>
        <time>2022-09-12T10:03:22.645Z</time>
      </trkpt>
      <trkpt lat="51.834971" lon="10.653142">
        <ele>562.481395</ele>
        <time>2022-09-12T10:03:54.719Z</time>
      </trkpt>
      <trkpt lat="51.834085" lon="10.654210">
        <ele>570.633396</ele>
        <time>2022-09-12T10:06:11.580Z</time>
      </trkpt>
      <trkpt lat="51.833886" lon="10.654852">
        <ele>573.908369</ele>
        <time>2022-09-12T10:07:11.782Z</time>
      </trkpt>
      <trkpt lat="51.833790" lon="10.655740">
        <ele>577.431360</ele>
        <time>2022-09-12T10:08:26.019Z</time>
      </trkpt>
      <trkpt lat="51.833930" lon="10.657056">
        <ele>582.558781</ele>
        <time>2022-09-12T10:10:04.798Z</time>
      </trkpt>
      <trkpt lat="51.833916" lon="10.657266">
        <ele>583.369803</ele>
        <time>2022-09-12T10:10:19.418Z</time>
      </trkpt>
      <trkpt lat="51.833598" lon="10.658623">
        <ele>586.883754</ele>
        <time>2022-09-12T10:11:58.789Z</time>
      </trkpt>
      <trkpt lat="51.833440" lon="10.659131">
        <ele>587.771248</ele>
        <time>2022-09-12T10:12:37.569Z</time>
      </trkpt>
      <trkpt lat="51.832985" lon="10.659905">
        <ele>589.438326</ele>
        <time>2022-09-12T10:13:49.695Z</time>
      </trkpt>
      <trkpt lat="51.832317" lon="10.660311">
        <ele>589.967282</ele>
        <time>2022-09-12T10:15:03.425Z</time>
      </trkpt>
      <trkpt lat="51.831985" lon="10.660600">
        <ele>589.929067</ele>
        <time>2022-09-12T10:15:41.221Z</time>
      </trkpt>
      <trkpt lat="51.831795" lon="10.660974">
        <ele>589.898738</ele>
        <time>2022-09-12T10:16:11.618Z</time>
      </trkpt>
      <trkpt lat="51.831774" lon="10.661344">
        <ele>589.875462</ele>
        <time>2022-09-12T10:16:35.088Z</time>
      </trkpt>
      <trkpt lat="51.831839" lon="10.661445">
        <ele>589.866327</ele>
        <time>2022-09-12T10:16:44.936Z</time>
      </trkpt>
      <trkpt lat="51.832098" lon="10.661253">
        <ele>589.837448</ele>
        <time>2022-09-12T10:17:13.455Z</time>
      </trkpt>
      <trkpt lat="51.832282" lon="10.661243">
        <ele>589.400214</ele>
        <time>2022-09-12T10:17:32.776Z</time>
      </trkpt>
      <trkpt lat="51.832534" lon="10.661373">
        <ele>588.639733</ele>
        <time>2022-09-12T10:18:00.447Z</time>
      </trkpt>
      <trkpt lat="51.832720" lon="10.661600">
        <ele>587.969902</ele>
        <time>2022-09-12T10:18:24.237Z</time>
      </trkpt>
      <trkpt lat="51.832762" lon="10.661820">
        <ele>587.560784</ele>
        <time>2022-09-12T10:18:39.916Z</time>
      </trkpt>
      <trkpt lat="51.832718" lon="10.662551">
        <ele>586.255821</ele>
        <time>2022-09-12T10:19:28.057Z</time>
      </trkpt>
      <trkpt lat="51.832755" lon="10.662799">
        <ele>585.802522</ele>
        <time>2022-09-12T10:19:44.671Z</time>
      </trkpt>
      <trkpt lat="51.832652" lon="10.663386">
        <ele>584.718329</ele>
        <time>2022-09-12T10:20:24.669Z</time>
      </trkpt>
      <trkpt lat="51.831912" lon="10.665325">
        <ele>574.992895</ele>
        <time>2022-09-12T10:23:03.260Z</time>
      </trkpt>
      <trkpt lat="51.831722" lon="10.666135">
        <ele>571.019856</ele>
        <time>2022-09-12T10:24:08.319Z</time>
      </trkpt>
      <trkpt lat="51.831640" lon="10.667413">
        <ele>563.940622</ele>
        <time>2022-09-12T10:25:43.296Z</time>
      </trkpt>
      <trkpt lat="51.831692" lon="10.667992">
        <ele>560.716998</ele>
        <time>2022-09-12T10:26:25.994Z</time>
      </trkpt>
      <trkpt lat="51.831944" lon="10.668143">
        <ele>558.321145</ele>
        <time>2022-09-12T10:26:57.244Z</time>
      </trkpt>
      <trkpt lat="51.832108" lon="10.668123">
        <ele>556.854818</ele>
        <time>2022-09-12T10:27:13.764Z</time>
      </trkpt>
      <trkpt lat="51.832104" lon="10.668096">
        <ele>556.701843</ele>
        <time>2022-09-12T10:27:15.481Z</time>
      </trkpt>
      <trkpt lat="51.832115" lon="10.668156">
        <ele>556.357024</ele>
        <time>2022-09-12T10:27:19.360Z</time>
      </trkpt>
      <trkpt lat="51.832060" lon="10.668117">
        <ele>556.000273</ele>
        <time>2022-09-12T10:27:25.382Z</time>
      </trkpt>
      <trkpt lat="51.832050" lon="10.668114">
        <ele>555.966899</ele>
        <time>2022-09-12T10:27:26.407Z</time>
      </trkpt>
      <trkpt lat="51.832100" lon="10.668087">
        <ele>555.793933</ele>
        <time>2022-09-12T10:27:31.697Z</time>
      </trkpt>
      <trkpt lat="51.832085" lon="10.668154">
        <ele>555.649428</ele>
        <time>2022-09-12T10:27:36.117Z</time>
      </trkpt>
      <trkpt lat="51.832080" lon="10.668088">
        <ele>555.514590</ele>
        <time>2022-09-12T10:27:40.238Z</time>
      </trkpt>
      <trkpt lat="51.832050" lon="10.668108">
        <ele>555.408119</ele>
        <time>2022-09-12T10:27:43.493Z</time>
      </trkpt>
      <trkpt lat="51.832050" lon="10.668108">
        <ele>555.408119</ele>
        <time>2022-09-12T10:27:43.493Z</time>
      </trkpt>
      <trkpt lat="51.832050" lon="10.668108">
        <ele>555.408119</ele>
        <time>2022-09-12T10:27:43.493Z</time>
      </trkpt>
      <trkpt lat="51.832070" lon="10.668121">
        <ele>555.337394</ele>
        <time>2022-09-12T10:27:45.657Z</time>
      </trkpt>
      <trkpt lat="51.832073" lon="10.668076">
        <ele>555.245612</ele>
        <time>2022-09-12T10:27:48.462Z</time>
      </trkpt>
      <trkpt lat="51.832058" lon="10.668058">
        <ele>555.184334</ele>
        <time>2022-09-12T10:27:50.331Z</time>
      </trkpt>
      <trkpt lat="51.832058" lon="10.668062">
        <ele>555.176223</ele>
        <time>2022-09-12T10:27:50.575Z</time>
      </trkpt>
      <trkpt lat="51.832058" lon="10.668062">
        <ele>555.176223</ele>
        <time>2022-09-12T10:27:50.575Z</time>
      </trkpt>
      <trkpt lat="51.832080" lon="10.668019">
        <ele>555.063020</ele>
        <time>2022-09-12T10:27:54.029Z</time>
      </trkpt>
      <trkpt lat="51.832080" lon="10.668014">
        <ele>555.052881</ele>
        <time>2022-09-12T10:27:54.335Z</time>
      </trkpt>
      <trkpt lat="51.832092" lon="10.667976">
        <ele>554.966345</ele>
        <time>2022-09-12T10:27:56.983Z</time>
      </trkpt>
      <trkpt lat="51.832110" lon="10.667983">
        <ele>554.905598</ele>
        <time>2022-09-12T10:27:58.831Z</time>
      </trkpt>
      <trkpt lat="51.832115" lon="10.668069">
        <ele>554.730435</ele>
        <time>2022-09-12T10:28:04.181Z</time>
      </trkpt>
      <trkpt lat="51.832127" lon="10.668031">
        <ele>554.643899</ele>
        <time>2022-09-12T10:28:06.825Z</time>
      </trkpt>
      <trkpt lat="51.832120" lon="10.667995">
        <ele>554.567369</ele>
        <time>2022-09-12T10:28:09.187Z</time>
      </trkpt>
      <trkpt lat="51.832100" lon="10.668034">
        <ele>554.464600</ele>
        <time>2022-09-12T10:28:12.351Z</time>
      </trkpt>
      <trkpt lat="51.832096" lon="10.668076">
        <ele>554.378425</ele>
        <time>2022-09-12T10:28:14.980Z</time>
      </trkpt>
      <trkpt lat="51.832108" lon="10.668147">
        <ele>554.229162</ele>
        <time>2022-09-12T10:28:19.536Z</time>
      </trkpt>
      <trkpt lat="51.832092" lon="10.668128">
        <ele>554.164039</ele>
        <time>2022-09-12T10:28:21.516Z</time>
      </trkpt>
      <trkpt lat="51.832130" lon="10.668168">
        <ele>554.015284</ele>
        <time>2022-09-12T10:28:26.054Z</time>
      </trkpt>
      <trkpt lat="51.832108" lon="10.668154">
        <ele>553.937711</ele>
        <time>2022-09-12T10:28:28.425Z</time>
      </trkpt>
      <trkpt lat="51.832123" lon="10.668225">
        <ele>553.785554</ele>
        <time>2022-09-12T10:28:33.068Z</time>
      </trkpt>
      <trkpt lat="51.832120" lon="10.668298">
        <ele>553.637196</ele>
        <time>2022-09-12T10:28:37.595Z</time>
      </trkpt>
      <trkpt lat="51.832108" lon="10.668334">
        <ele>553.554252</ele>
        <time>2022-09-12T10:28:40.128Z</time>
      </trkpt>
      <trkpt lat="51.832115" lon="10.668348">
        <ele>553.517733</ele>
        <time>2022-09-12T10:28:41.244Z</time>
      </trkpt>
      <trkpt lat="51.832115" lon="10.668348">
        <ele>553.517733</ele>
        <time>2022-09-12T10:28:41.244Z</time>
      </trkpt>
      <trkpt lat="51.832115" lon="10.668348">
        <ele>553.517733</ele>
        <time>2022-09-12T10:28:41.244Z</time>
      </trkpt>
      <trkpt lat="51.832100" lon="10.668362">
        <ele>553.460911</ele>
        <time>2022-09-12T10:28:42.978Z</time>
      </trkpt>
      <trkpt lat="51.832092" lon="10.668382">
        <ele>553.412600</ele>
        <time>2022-09-12T10:28:44.452Z</time>
      </trkpt>
      <trkpt lat="51.832090" lon="10.668374">
        <ele>553.395100</ele>
        <time>2022-09-12T10:28:44.984Z</time>
      </trkpt>
      <trkpt lat="51.832108" lon="10.668382">
        <ele>553.333847</ele>
        <time>2022-09-12T10:28:46.847Z</time>
      </trkpt>
      <trkpt lat="51.832100" lon="10.668334">
        <ele>553.233034</ele>
        <time>2022-09-12T10:28:49.924Z</time>
      </trkpt>
      <trkpt lat="51.832127" lon="10.668256">
        <ele>553.051740</ele>
        <time>2022-09-12T10:28:55.450Z</time>
      </trkpt>
      <trkpt lat="51.832110" lon="10.668343">
        <ele>552.866710</ele>
        <time>2022-09-12T10:29:01.095Z</time>
      </trkpt>
      <trkpt lat="51.832100" lon="10.668359">
        <ele>552.820563</ele>
        <time>2022-09-12T10:29:02.501Z</time>
      </trkpt>
      <trkpt lat="51.832054" lon="10.668330">
        <ele>552.658566</ele>
        <time>2022-09-12T10:29:07.443Z</time>
      </trkpt>
      <trkpt lat="51.832043" lon="10.668362">
        <ele>552.584312</ele>
        <time>2022-09-12T10:29:09.703Z</time>
      </trkpt>
      <trkpt lat="51.832096" lon="10.668335">
        <ele>552.401981</ele>
        <time>2022-09-12T10:29:15.261Z</time>
      </trkpt>
      <trkpt lat="51.832140" lon="10.668357">
        <ele>552.250863</ele>
        <time>2022-09-12T10:29:19.871Z</time>
      </trkpt>
      <trkpt lat="51.832120" lon="10.668309">
        <ele>552.133469</ele>
        <time>2022-09-12T10:29:23.451Z</time>
      </trkpt>
      <trkpt lat="51.832090" lon="10.668234">
        <ele>551.952302</ele>
        <time>2022-09-12T10:29:28.978Z</time>
      </trkpt>
      <trkpt lat="51.832080" lon="10.668289">
        <ele>551.836045</ele>
        <time>2022-09-12T10:29:32.524Z</time>
      </trkpt>
      <trkpt lat="51.832080" lon="10.668289">
        <ele>551.836045</ele>
        <time>2022-09-12T10:29:32.524Z</time>
      </trkpt>
      <trkpt lat="51.832077" lon="10.668368">
        <ele>551.675545</ele>
        <time>2022-09-12T10:29:37.422Z</time>
      </trkpt>
      <trkpt lat="51.832120" lon="10.668399">
        <ele>551.521073</ele>
        <time>2022-09-12T10:29:42.133Z</time>
      </trkpt>
      <trkpt lat="51.832060" lon="10.668305">
        <ele>551.247032</ele>
        <time>2022-09-12T10:29:50.494Z</time>
      </trkpt>
      <trkpt lat="51.832047" lon="10.668256">
        <ele>551.138899</ele>
        <time>2022-09-12T10:29:53.789Z</time>
      </trkpt>
      <trkpt lat="51.832100" lon="10.668283">
        <ele>550.956568</ele>
        <time>2022-09-12T10:29:59.338Z</time>
      </trkpt>
      <trkpt lat="51.832108" lon="10.668317">
        <ele>550.882793</ele>
        <time>2022-09-12T10:30:01.612Z</time>
      </trkpt>
      <trkpt lat="51.832092" lon="10.668318">
        <ele>550.830251</ele>
        <time>2022-09-12T10:30:03.208Z</time>
      </trkpt>
      <trkpt lat="51.832096" lon="10.668290">
        <ele>550.771975</ele>
        <time>2022-09-12T10:30:04.984Z</time>
      </trkpt>
      <trkpt lat="51.832108" lon="10.668323">
        <ele>550.694330</ele>
        <time>2022-09-12T10:30:07.352Z</time>
      </trkpt>
      <trkpt lat="51.832090" lon="10.668327">
        <ele>550.634710</ele>
        <time>2022-09-12T10:30:09.165Z</time>
      </trkpt>
      <trkpt lat="51.832077" lon="10.668333">
        <ele>550.590350</ele>
        <time>2022-09-12T10:30:10.516Z</time>
      </trkpt>
      <trkpt lat="51.832108" lon="10.668413">
        <ele>550.398869</ele>
        <time>2022-09-12T10:30:16.355Z</time>
      </trkpt>
      <trkpt lat="51.832077" lon="10.668345">
        <ele>550.227515</ele>
        <time>2022-09-12T10:30:21.576Z</time>
      </trkpt>
      <trkpt lat="51.832066" lon="10.668320">
        <ele>550.177727</ele>
        <time>2022-09-12T10:30:23.481Z</time>
      </trkpt>
      <trkpt lat="51.832085" lon="10.668359">
        <ele>550.110994</ele>
        <time>2022-09-12T10:30:26.557Z</time>
      </trkpt>
      <trkpt lat="51.832134" lon="10.668340">
        <ele>550.001430</ele>
        <time>2022-09-12T10:30:31.604Z</time>
      </trkpt>
      <trkpt lat="51.832153" lon="10.668380">
        <ele>549.933638</ele>
        <time>2022-09-12T10:30:34.720Z</time>
      </trkpt>
      <trkpt lat="51.832153" lon="10.668380">
        <ele>549.933638</ele>
        <time>2022-09-12T10:30:34.720Z</time>
      </trkpt>
      <trkpt lat="51.832108" lon="10.668344">
        <ele>549.824483</ele>
        <time>2022-09-12T10:30:39.743Z</time>
      </trkpt>
      <trkpt lat="51.832085" lon="10.668337">
        <ele>549.773595</ele>
        <time>2022-09-12T10:30:42.083Z</time>
      </trkpt>
      <trkpt lat="51.832070" lon="10.668329">
        <ele>549.739252</ele>
        <time>2022-09-12T10:30:43.663Z</time>
      </trkpt>
      <trkpt lat="51.832100" lon="10.668384">
        <ele>549.640675</ele>
        <time>2022-09-12T10:30:48.201Z</time>
      </trkpt>
      <trkpt lat="51.832100" lon="10.668384">
        <ele>549.640675</ele>
        <time>2022-09-12T10:30:48.201Z</time>
      </trkpt>
      <trkpt lat="51.832070" lon="10.668357">
        <ele>549.566032</ele>
        <time>2022-09-12T10:30:51.638Z</time>
      </trkpt>
      <trkpt lat="51.832092" lon="10.668403">
        <ele>549.487871</ele>
        <time>2022-09-12T10:30:55.239Z</time>
      </trkpt>
      <trkpt lat="51.832096" lon="10.668409">
        <ele>549.476011</ele>
        <time>2022-09-12T10:30:55.778Z</time>
      </trkpt>
      <trkpt lat="51.832077" lon="10.668420">
        <ele>549.432132</ele>
        <time>2022-09-12T10:30:57.792Z</time>
      </trkpt>
      <trkpt lat="51.832080" lon="10.668455">
        <ele>549.384651</ele>
        <time>2022-09-12T10:30:59.979Z</time>
      </trkpt>
      <trkpt lat="51.832104" lon="10.668469">
        <ele>549.329178</ele>
        <time>2022-09-12T10:31:02.538Z</time>
      </trkpt>
      <trkpt lat="51.832080" lon="10.668423">
        <ele>549.248282</ele>
        <time>2022-09-12T10:31:06.265Z</time>
      </trkpt>
      <trkpt lat="51.832096" lon="10.668407">
        <ele>549.207384</ele>
        <time>2022-09-12T10:31:08.149Z</time>
      </trkpt>
      <trkpt lat="51.832115" lon="10.668478">
        <ele>549.103417</ele>
        <time>2022-09-12T10:31:12.935Z</time>
      </trkpt>
      <trkpt lat="51.832130" lon="10.668464">
        <ele>549.065765</ele>
        <time>2022-09-12T10:31:14.668Z</time>
      </trkpt>
      <trkpt lat="51.832130" lon="10.668464">
        <ele>549.065765</ele>
        <time>2022-09-12T10:31:14.668Z</time>
      </trkpt>
      <trkpt lat="51.832100" lon="10.668401">
        <ele>548.958891</ele>
        <time>2022-09-12T10:31:19.585Z</time>
      </trkpt>
      <trkpt lat="51.832060" lon="10.668339">
        <ele>548.838451</ele>
        <time>2022-09-12T10:31:25.132Z</time>
      </trkpt>
      <trkpt lat="51.832043" lon="10.668304">
        <ele>548.778632</ele>
        <time>2022-09-12T10:31:27.889Z</time>
      </trkpt>
      <trkpt lat="51.832043" lon="10.668304">
        <ele>548.778632</ele>
        <time>2022-09-12T10:31:27.889Z</time>
      </trkpt>
      <trkpt lat="51.832016" lon="10.668276">
        <ele>548.708901</ele>
        <time>2022-09-12T10:31:31.098Z</time>
      </trkpt>
      <trkpt lat="51.832020" lon="10.668280">
        <ele>548.698676</ele>
        <time>2022-09-12T10:31:31.572Z</time>
      </trkpt>
      <trkpt lat="51.832020" lon="10.668280">
        <ele>548.698676</ele>
        <time>2022-09-12T10:31:31.572Z</time>
      </trkpt>
      <trkpt lat="51.832066" lon="10.668307">
        <ele>548.592275</ele>
        <time>2022-09-12T10:31:36.464Z</time>
      </trkpt>
      <trkpt lat="51.832100" lon="10.668298">
        <ele>548.517362</ele>
        <time>2022-09-12T10:31:39.915Z</time>
      </trkpt>
      <trkpt lat="51.832100" lon="10.668285">
        <ele>548.499893</ele>
        <time>2022-09-12T10:31:40.719Z</time>
      </trkpt>
      <trkpt lat="51.832080" lon="10.668304">
        <ele>548.449464</ele>
        <time>2022-09-12T10:31:43.041Z</time>
      </trkpt>
      <trkpt lat="51.832066" lon="10.668315">
        <ele>548.415623</ele>
        <time>2022-09-12T10:31:44.601Z</time>
      </trkpt>
      <trkpt lat="51.832054" lon="10.668335">
        <ele>548.378165</ele>
        <time>2022-09-12T10:31:46.323Z</time>
      </trkpt>
      <trkpt lat="51.832050" lon="10.668354">
        <ele>548.351193</ele>
        <time>2022-09-12T10:31:47.567Z</time>
      </trkpt>
      <trkpt lat="51.832050" lon="10.668354">
        <ele>548.351193</ele>
        <time>2022-09-12T10:31:47.567Z</time>
      </trkpt>
      <trkpt lat="51.832050" lon="10.668354">
        <ele>548.351193</ele>
        <time>2022-09-12T10:31:47.567Z</time>
      </trkpt>
      <trkpt lat="51.832050" lon="10.668354">
        <ele>548.351193</ele>
        <time>2022-09-12T10:31:47.567Z</time>
      </trkpt>
      <trkpt lat="51.832050" lon="10.668354">
        <ele>548.351193</ele>
        <time>2022-09-12T10:31:47.567Z</time>
      </trkpt>
      <trkpt lat="51.832050" lon="10.668354">
        <ele>548.351193</ele>
        <time>2022-09-12T10:31:47.567Z</time>
      </trkpt>
      <trkpt lat="51.832050" lon="10.668354">
        <ele>548.351193</ele>
        <time>2022-09-12T10:31:47.567Z</time>
      </trkpt>
      <trkpt lat="51.832050" lon="10.668354">
        <ele>548.351193</ele>
        <time>2022-09-12T10:31:47.567Z</time>
      </trkpt>
      <trkpt lat="51.832050" lon="10.668354">
        <ele>548.351193</ele>
        <time>2022-09-12T10:31:47.567Z</time>
      </trkpt>
      <trkpt lat="51.832050" lon="10.668354">
        <ele>548.351193</ele>
        <time>2022-09-12T10:31:47.567Z</time>
      </trkpt>
      <trkpt lat="51.832050" lon="10.668354">
        <ele>548.351193</ele>
        <time>2022-09-12T10:31:47.567Z</time>
      </trkpt>
      <trkpt lat="51.832040" lon="10.668316">
        <ele>548.295694</ele>
        <time>2022-09-12T10:31:50.118Z</time>
      </trkpt>
      <trkpt lat="51.832020" lon="10.668311">
        <ele>548.251689</ele>
        <time>2022-09-12T10:31:52.187Z</time>
      </trkpt>
      <trkpt lat="51.832027" lon="10.668228">
        <ele>548.139126</ele>
        <time>2022-09-12T10:31:57.625Z</time>
      </trkpt>
      <trkpt lat="51.832025" lon="10.668225">
        <ele>548.133196</ele>
        <time>2022-09-12T10:31:58.048Z</time>
      </trkpt>
      <trkpt lat="51.832027" lon="10.668228">
        <ele>548.127266</ele>
        <time>2022-09-12T10:31:58.478Z</time>
      </trkpt>
      <trkpt lat="51.832020" lon="10.668311">
        <ele>548.014702</ele>
        <time>2022-09-12T10:32:04.101Z</time>
      </trkpt>
      <trkpt lat="51.832002" lon="10.668499">
        <ele>547.759065</ele>
        <time>2022-09-12T10:32:16.564Z</time>
      </trkpt>
      <trkpt lat="51.832053" lon="10.669944">
        <ele>545.853480</ele>
        <time>2022-09-12T10:33:51.060Z</time>
      </trkpt>
      <trkpt lat="51.832259" lon="10.670175">
        <ele>545.353389</ele>
        <time>2022-09-12T10:34:17.757Z</time>
      </trkpt>
      <trkpt lat="51.832693" lon="10.670276">
        <ele>544.478491</ele>
        <time>2022-09-12T10:35:03.739Z</time>
      </trkpt>
      <trkpt lat="51.832999" lon="10.670213">
        <ele>543.862987</ele>
        <time>2022-09-12T10:35:36.035Z</time>
      </trkpt>
      <trkpt lat="51.833320" lon="10.670039">
        <ele>543.187497</ele>
        <time>2022-09-12T10:36:11.158Z</time>
      </trkpt>
      <trkpt lat="51.833351" lon="10.669863">
        <ele>542.961838</ele>
        <time>2022-09-12T10:36:22.528Z</time>
      </trkpt>
      <trkpt lat="51.833533" lon="10.669760">
        <ele>542.710251</ele>
        <time>2022-09-12T10:36:42.490Z</time>
      </trkpt>
      <trkpt lat="51.834276" lon="10.669069">
        <ele>542.820578</ele>
        <time>2022-09-12T10:38:08.702Z</time>
      </trkpt>
      <trkpt lat="51.835239" lon="10.667485">
        <ele>542.812470</ele>
        <time>2022-09-12T10:40:29.209Z</time>
      </trkpt>
      <trkpt lat="51.836100" lon="10.666399">
        <ele>542.544536</ele>
        <time>2022-09-12T10:42:19.018Z</time>
      </trkpt>
      <trkpt lat="51.836814" lon="10.665347">
        <ele>540.701965</ele>
        <time>2022-09-12T10:43:58.745Z</time>
      </trkpt>
      <trkpt lat="51.838110" lon="10.663007">
        <ele>535.324549</ele>
        <time>2022-09-12T10:47:25.577Z</time>
      </trkpt>
      <trkpt lat="51.838693" lon="10.661832">
        <ele>532.350085</ele>
        <time>2022-09-12T10:49:05.296Z</time>
      </trkpt>
      <trkpt lat="51.838938" lon="10.661479">
        <ele>531.631350</ele>
        <time>2022-09-12T10:49:40.245Z</time>
      </trkpt>
      <trkpt lat="51.839359" lon="10.660537">
        <ele>530.057381</ele>
        <time>2022-09-12T10:50:55.954Z</time>
      </trkpt>
      <trkpt lat="51.839923" lon="10.659742">
        <ele>528.489324</ele>
        <time>2022-09-12T10:52:13.611Z</time>
      </trkpt>
      <trkpt lat="51.840982" lon="10.658677">
        <ele>529.460472</ele>
        <time>2022-09-12T10:54:19.661Z</time>
      </trkpt>
      <trkpt lat="51.841834" lon="10.658143">
        <ele>530.538724</ele>
        <time>2022-09-12T10:55:59.871Z</time>
      </trkpt>
      <trkpt lat="51.841959" lon="10.658197">
        <ele>530.762494</ele>
        <time>2022-09-12T10:56:15.096Z</time>
      </trkpt>
      <trkpt lat="51.842112" lon="10.658375">
        <ele>531.088395</ele>
        <time>2022-09-12T10:56:34.518Z</time>
      </trkpt>
      <trkpt lat="51.842568" lon="10.659001">
        <ele>532.122584</ele>
        <time>2022-09-12T10:57:39.323Z</time>
      </trkpt>
      <trkpt lat="51.842744" lon="10.659355">
        <ele>532.608141</ele>
        <time>2022-09-12T10:58:08.832Z</time>
      </trkpt>
      <trkpt lat="51.842748" lon="10.659529">
        <ele>532.794205</ele>
        <time>2022-09-12T10:58:20.020Z</time>
      </trkpt>
      <trkpt lat="51.842701" lon="10.659947">
        <ele>532.382527</ele>
        <time>2022-09-12T10:58:47.349Z</time>
      </trkpt>
      <trkpt lat="51.842376" lon="10.661471">
        <ele>528.487186</ele>
        <time>2022-09-12T11:00:33.635Z</time>
      </trkpt>
      <trkpt lat="51.842360" lon="10.661945">
        <ele>527.340235</ele>
        <time>2022-09-12T11:01:06.712Z</time>
      </trkpt>
      <trkpt lat="51.842444" lon="10.663060">
        <ele>522.700387</ele>
        <time>2022-09-12T11:02:25.849Z</time>
      </trkpt>
      <trkpt lat="51.842655" lon="10.664137">
        <ele>515.995208</ele>
        <time>2022-09-12T11:03:49.920Z</time>
      </trkpt>
      <trkpt lat="51.843019" lon="10.664997">
        <ele>509.808714</ele>
        <time>2022-09-12T11:05:07.847Z</time>
      </trkpt>
      <trkpt lat="51.843228" lon="10.665229">
        <ele>507.463041</ele>
        <time>2022-09-12T11:05:38.890Z</time>
      </trkpt>
      <trkpt lat="51.843432" lon="10.665444">
        <ele>505.284487</ele>
        <time>2022-09-12T11:06:08.277Z</time>
      </trkpt>
      <trkpt lat="51.843641" lon="10.665365">
        <ele>503.363763</ele>
        <time>2022-09-12T11:06:33.458Z</time>
      </trkpt>
      <trkpt lat="51.844138" lon="10.664866">
        <ele>498.129781</ele>
        <time>2022-09-12T11:07:42.888Z</time>
      </trkpt>
      <trkpt lat="51.844738" lon="10.664064">
        <ele>492.188575</ele>
        <time>2022-09-12T11:09:13.237Z</time>
      </trkpt>
      <trkpt lat="51.845143" lon="10.663787">
        <ele>491.108933</ele>
        <time>2022-09-12T11:10:01.830Z</time>
      </trkpt>
      <trkpt lat="51.845355" lon="10.663736">
        <ele>490.582634</ele>
        <time>2022-09-12T11:10:24.388Z</time>
      </trkpt>
      <trkpt lat="51.846077" lon="10.663072">
        <ele>488.543544</ele>
        <time>2022-09-12T11:11:48.015Z</time>
      </trkpt>
      <trkpt lat="51.846234" lon="10.662993">
        <ele>488.173979</ele>
        <time>2022-09-12T11:12:04.935Z</time>
      </trkpt>
      <trkpt lat="51.846320" lon="10.663351">
        <ele>488.653959</ele>
        <time>2022-09-12T11:12:31.053Z</time>
      </trkpt>
      <trkpt lat="51.846397" lon="10.663664">
        <ele>489.074946</ele>
        <time>2022-09-12T11:12:53.243Z</time>
      </trkpt>
      <trkpt lat="51.846642" lon="10.664107">
        <ele>489.817921</ele>
        <time>2022-09-12T11:13:32.766Z</time>
      </trkpt>
      <trkpt lat="51.846769" lon="10.664632">
        <ele>490.522445</ele>
        <time>2022-09-12T11:14:10.782Z</time>
      </trkpt>
      <trkpt lat="51.846888" lon="10.665582">
        <ele>491.733687</ele>
        <time>2022-09-12T11:15:17.681Z</time>
      </trkpt>
      <trkpt lat="51.847076" lon="10.666104">
        <ele>491.746451</ele>
        <time>2022-09-12T11:15:57.155Z</time>
      </trkpt>
      <trkpt lat="51.847417" lon="10.666717">
        <ele>491.671625</ele>
        <time>2022-09-12T11:16:48.760Z</time>
      </trkpt>
      <trkpt lat="51.847460" lon="10.666900">
        <ele>491.653865</ele>
        <time>2022-09-12T11:17:01.015Z</time>
      </trkpt>
      <trkpt lat="51.847381" lon="10.667535">
        <ele>491.595109</ele>
        <time>2022-09-12T11:17:41.280Z</time>
      </trkpt>
      <trkpt lat="51.847193" lon="10.668121">
        <ele>491.535214</ele>
        <time>2022-09-12T11:18:23.397Z</time>
      </trkpt>
      <trkpt lat="51.847187" lon="10.668333">
        <ele>491.009151</ele>
        <time>2022-09-12T11:18:37.238Z</time>
      </trkpt>
      <trkpt lat="51.847463" lon="10.669608">
        <ele>487.149833</ele>
        <time>2022-09-12T11:20:08.041Z</time>
      </trkpt>
      <trkpt lat="51.847608" lon="10.669737">
        <ele>486.384741</ele>
        <time>2022-09-12T11:20:26.643Z</time>
      </trkpt>
      <trkpt lat="51.848425" lon="10.669737">
        <ele>482.315037</ele>
        <time>2022-09-12T11:21:57.589Z</time>
      </trkpt>
      <trkpt lat="51.848703" lon="10.669932">
        <ele>480.242339</ele>
        <time>2022-09-12T11:22:31.823Z</time>
      </trkpt>
      <trkpt lat="51.848886" lon="10.670291">
        <ele>478.275349</ele>
        <time>2022-09-12T11:23:04.901Z</time>
      </trkpt>
      <trkpt lat="51.848953" lon="10.671309">
        <ele>473.948913</ele>
        <time>2022-09-12T11:24:17.530Z</time>
      </trkpt>
      <trkpt lat="51.849094" lon="10.671712">
        <ele>471.991635</ele>
        <time>2022-09-12T11:24:50.611Z</time>
      </trkpt>
      <trkpt lat="51.849413" lon="10.671848">
        <ele>469.521392</ele>
        <time>2022-09-12T11:25:28.891Z</time>
      </trkpt>
      <trkpt lat="51.850070" lon="10.671900">
        <ele>464.204211</ele>
        <time>2022-09-12T11:26:40.374Z</time>
      </trkpt>
      <trkpt lat="51.850265" lon="10.671992">
        <ele>462.562358</ele>
        <time>2022-09-12T11:27:03.901Z</time>
      </trkpt>
      <trkpt lat="51.850485" lon="10.672268">
        <ele>460.312498</ele>
        <time>2022-09-12T11:27:37.025Z</time>
      </trkpt>
      <trkpt lat="51.850617" lon="10.672795">
        <ele>457.472940</ele>
        <time>2022-09-12T11:28:19.611Z</time>
      </trkpt>
      <trkpt lat="51.850545" lon="10.673462">
        <ele>452.888662</ele>
        <time>2022-09-12T11:29:10.161Z</time>
      </trkpt>
      <trkpt lat="51.850582" lon="10.673465">
        <ele>452.431113</ele>
        <time>2022-09-12T11:29:14.972Z</time>
      </trkpt>
      <trkpt lat="51.850574" lon="10.673600">
        <ele>451.396441</ele>
        <time>2022-09-12T11:29:25.353Z</time>
      </trkpt>
      <trkpt lat="51.850616" lon="10.673506">
        <ele>450.511355</ele>
        <time>2022-09-12T11:29:37.086Z</time>
      </trkpt>
      <trkpt lat="51.850728" lon="10.673609">
        <ele>448.920458</ele>
        <time>2022-09-12T11:29:56.668Z</time>
      </trkpt>
      <trkpt lat="51.850728" lon="10.673318">
        <ele>446.700365</ele>
        <time>2022-09-12T11:30:20.148Z</time>
      </trkpt>
      <trkpt lat="51.850865" lon="10.672424">
        <ele>439.673135</ele>
        <time>2022-09-12T11:31:30.000Z</time>
      </trkpt>
      <trkpt lat="51.850761" lon="10.671593">
        <ele>433.323127</ele>
        <time>2022-09-12T11:32:35.892Z</time>
      </trkpt>
      <trkpt lat="51.850547" lon="10.671152">
        <ele>429.577648</ele>
        <time>2022-09-12T11:33:20.107Z</time>
      </trkpt>
      <trkpt lat="51.849919" lon="10.670818">
        <ele>422.430613</ele>
        <time>2022-09-12T11:34:38.318Z</time>
      </trkpt>
      <trkpt lat="51.849710" lon="10.670565">
        <ele>419.608973</ele>
        <time>2022-09-12T11:35:09.457Z</time>
      </trkpt>
      <trkpt lat="51.849772" lon="10.669674">
        <ele>413.524845</ele>
        <time>2022-09-12T11:36:16.633Z</time>
      </trkpt>
      <trkpt lat="51.849726" lon="10.669389">
        <ele>411.384821</ele>
        <time>2022-09-12T11:36:38.380Z</time>
      </trkpt>
      <trkpt lat="51.849475" lon="10.668433">
        <ele>403.838193</ele>
        <time>2022-09-12T11:37:54.768Z</time>
      </trkpt>
      <trkpt lat="51.849159" lon="10.667740">
        <ele>397.580429</ele>
        <time>2022-09-12T11:39:00.460Z</time>
      </trkpt>
      <trkpt lat="51.849161" lon="10.667222">
        <ele>393.817058</ele>
        <time>2022-09-12T11:39:41.793Z</time>
      </trkpt>
      <trkpt lat="51.849407" lon="10.666177">
        <ele>383.547394</ele>
        <time>2022-09-12T11:41:11.560Z</time>
      </trkpt>
      <trkpt lat="51.849433" lon="10.665721">
        <ele>379.312928</ele>
        <time>2022-09-12T11:41:47.483Z</time>
      </trkpt>
      <trkpt lat="51.849383" lon="10.665201">
        <ele>374.446686</ele>
        <time>2022-09-12T11:42:29.977Z</time>
      </trkpt>
      <trkpt lat="51.849388" lon="10.664370">
        <ele>366.762222</ele>
        <time>2022-09-12T11:43:36.165Z</time>
      </trkpt>
      <trkpt lat="51.849155" lon="10.663349">
        <ele>358.229376</ele>
        <time>2022-09-12T11:45:01.484Z</time>
      </trkpt>
      <trkpt lat="51.849233" lon="10.663180">
        <ele>356.579425</ele>
        <time>2022-09-12T11:45:18.550Z</time>
      </trkpt>
      <trkpt lat="51.849307" lon="10.663323">
        <ele>355.120432</ele>
        <time>2022-09-12T11:45:32.735Z</time>
      </trkpt>
      <trkpt lat="51.849531" lon="10.663874">
        <ele>349.961532</ele>
        <time>2022-09-12T11:46:22.184Z</time>
      </trkpt>
      <trkpt lat="51.849547" lon="10.663918">
        <ele>349.562208</ele>
        <time>2022-09-12T11:46:25.922Z</time>
      </trkpt>
      <trkpt lat="51.849670" lon="10.664304">
        <ele>346.165288</ele>
        <time>2022-09-12T11:46:58.640Z</time>
      </trkpt>
      <trkpt lat="51.849689" lon="10.664383">
        <ele>345.502249</ele>
        <time>2022-09-12T11:47:04.813Z</time>
      </trkpt>
      <trkpt lat="51.849995" lon="10.665323">
        <ele>337.835197</ele>
        <time>2022-09-12T11:48:25.015Z</time>
      </trkpt>
      <trkpt lat="51.850180" lon="10.665699">
        <ele>334.438275</ele>
        <time>2022-09-12T11:49:01.149Z</time>
      </trkpt>
      <trkpt lat="51.850195" lon="10.665734">
        <ele>334.137244</ele>
        <time>2022-09-12T11:49:04.409Z</time>
      </trkpt>
      <trkpt lat="51.850205" lon="10.665752">
        <ele>333.966169</ele>
        <time>2022-09-12T11:49:06.231Z</time>
      </trkpt>
      <trkpt lat="51.850270" lon="10.665890">
        <ele>332.739816</ele>
        <time>2022-09-12T11:49:19.902Z</time>
      </trkpt>
      <trkpt lat="51.850324" lon="10.666039">
        <ele>331.519046</ele>
        <time>2022-09-12T11:49:33.098Z</time>
      </trkpt>
      <trkpt lat="51.850408" lon="10.666262">
        <ele>329.673307</ele>
        <time>2022-09-12T11:49:52.325Z</time>
      </trkpt>
      <trkpt lat="51.850773" lon="10.667286">
        <ele>321.745013</ele>
        <time>2022-09-12T11:51:21.982Z</time>
      </trkpt>
      <trkpt lat="51.851032" lon="10.667547">
        <ele>319.012050</ele>
        <time>2022-09-12T11:51:59.587Z</time>
      </trkpt>
      <trkpt lat="51.851255" lon="10.667707">
        <ele>316.826968</ele>
        <time>2022-09-12T11:52:29.460Z</time>
      </trkpt>
      <trkpt lat="51.851521" lon="10.667889">
        <ele>314.240008</ele>
        <time>2022-09-12T11:53:03.321Z</time>
      </trkpt>
      <trkpt lat="51.851609" lon="10.667802">
        <ele>313.316315</ele>
        <time>2022-09-12T11:53:15.510Z</time>
      </trkpt>
      <trkpt lat="51.851717" lon="10.667877">
        <ele>312.263576</ele>
        <time>2022-09-12T11:53:28.821Z</time>
      </trkpt>
      <trkpt lat="51.852439" lon="10.668705">
        <ele>305.666783</ele>
        <time>2022-09-12T11:55:09.548Z</time>
      </trkpt>
      <trkpt lat="51.852615" lon="10.668876">
        <ele>304.690699</ele>
        <time>2022-09-12T11:55:31.383Z</time>
      </trkpt>
      <trkpt lat="51.852597" lon="10.668998">
        <ele>304.322269</ele>
        <time>2022-09-12T11:55:39.522Z</time>
      </trkpt>
      <trkpt lat="51.852722" lon="10.669128">
        <ele>303.615774</ele>
        <time>2022-09-12T11:55:55.443Z</time>
      </trkpt>
      <trkpt lat="51.852870" lon="10.669281">
        <ele>302.780743</ele>
        <time>2022-09-12T11:56:14.263Z</time>
      </trkpt>
      <trkpt lat="51.853152" lon="10.669574">
        <ele>301.187340</ele>
        <time>2022-09-12T11:56:50.456Z</time>
      </trkpt>
      <trkpt lat="51.853195" lon="10.669618">
        <ele>300.945443</ele>
        <time>2022-09-12T11:56:55.965Z</time>
      </trkpt>
      <trkpt lat="51.853419" lon="10.669851">
        <ele>299.679348</ele>
        <time>2022-09-12T11:57:25.202Z</time>
      </trkpt>
      <trkpt lat="51.853783" lon="10.670224">
        <ele>297.573469</ele>
        <time>2022-09-12T11:58:12.808Z</time>
      </trkpt>
      <trkpt lat="51.854228" lon="10.670799">
        <ele>294.708672</ele>
        <time>2022-09-12T11:59:16.241Z</time>
      </trkpt>
      <trkpt lat="51.854729" lon="10.671470">
        <ele>291.437040</ele>
        <time>2022-09-12T12:00:28.337Z</time>
      </trkpt>
      <trkpt lat="51.854812" lon="10.671582">
        <ele>290.893374</ele>
        <time>2022-09-12T12:00:40.251Z</time>
      </trkpt>
      <trkpt lat="51.854871" lon="10.671663">
        <ele>290.504142</ele>
        <time>2022-09-12T12:00:48.686Z</time>
      </trkpt>
      <trkpt lat="51.854910" lon="10.671718">
        <ele>290.243901</ele>
        <time>2022-09-12T12:00:54.448Z</time>
      </trkpt>
      <trkpt lat="51.854926" lon="10.671741">
        <ele>290.136240</ele>
        <time>2022-09-12T12:00:56.808Z</time>
      </trkpt>
      <trkpt lat="51.854984" lon="10.671821">
        <ele>289.752855</ele>
        <time>2022-09-12T12:01:05.086Z</time>
      </trkpt>
      <trkpt lat="51.855277" lon="10.672217">
        <ele>288.745945</ele>
        <time>2022-09-12T12:01:46.426Z</time>
      </trkpt>
      <trkpt lat="51.855344" lon="10.672301">
        <ele>288.544039</ele>
        <time>2022-09-12T12:01:55.507Z</time>
      </trkpt>
      <trkpt lat="51.855397" lon="10.672368">
        <ele>288.383825</ele>
        <time>2022-09-12T12:02:02.725Z</time>
      </trkpt>
      <trkpt lat="51.855770" lon="10.672840">
        <ele>287.255849</ele>
        <time>2022-09-12T12:02:52.625Z</time>
      </trkpt>
      <trkpt lat="51.855848" lon="10.672928">
        <ele>287.029332</ele>
        <time>2022-09-12T12:03:02.343Z</time>
      </trkpt>
      <trkpt lat="51.856327" lon="10.673477">
        <ele>285.631018</ele>
        <time>2022-09-12T12:04:02.875Z</time>
      </trkpt>
      <trkpt lat="51.856415" lon="10.673562">
        <ele>285.386867</ele>
        <time>2022-09-12T12:04:13.236Z</time>
      </trkpt>
      <trkpt lat="51.856506" lon="10.673649">
        <ele>285.171581</ele>
        <time>2022-09-12T12:04:24.000Z</time>
      </trkpt>
      <trkpt lat="51.856633" lon="10.673772">
        <ele>284.906556</ele>
        <time>2022-09-12T12:04:39.022Z</time>
      </trkpt>
      <trkpt lat="51.857001" lon="10.674121">
        <ele>284.142785</ele>
        <time>2022-09-12T12:05:21.988Z</time>
      </trkpt>
      <trkpt lat="51.857037" lon="10.674157">
        <ele>284.067009</ele>
        <time>2022-09-12T12:05:26.234Z</time>
      </trkpt>
      <trkpt lat="51.857328" lon="10.674409">
        <ele>283.476010</ele>
        <time>2022-09-12T12:06:00.212Z</time>
      </trkpt>
      <trkpt lat="51.857438" lon="10.674503">
        <ele>283.253262</ele>
        <time>2022-09-12T12:06:13.285Z</time>
      </trkpt>
      <trkpt lat="51.857543" lon="10.674636">
        <ele>283.014515</ele>
        <time>2022-09-12T12:06:27.272Z</time>
      </trkpt>
      <trkpt lat="51.857564" lon="10.674666">
        <ele>282.964361</ele>
        <time>2022-09-12T12:06:30.162Z</time>
      </trkpt>
      <trkpt lat="51.857625" lon="10.674775">
        <ele>282.801668</ele>
        <time>2022-09-12T12:06:39.662Z</time>
      </trkpt>
      <trkpt lat="51.858119" lon="10.675237">
        <ele>281.415569</ele>
        <time>2022-09-12T12:07:40.642Z</time>
      </trkpt>
      <trkpt lat="51.858212" lon="10.675285">
        <ele>281.014007</ele>
        <time>2022-09-12T12:07:51.094Z</time>
      </trkpt>
      <trkpt lat="51.858352" lon="10.675409">
        <ele>280.357517</ele>
        <time>2022-09-12T12:08:08.341Z</time>
      </trkpt>
      <trkpt lat="51.858367" lon="10.675423">
        <ele>280.286290</ele>
        <time>2022-09-12T12:08:10.223Z</time>
      </trkpt>
      <trkpt lat="51.859417" lon="10.676447">
        <ele>275.243661</ele>
        <time>2022-09-12T12:10:22.874Z</time>
      </trkpt>
      <trkpt lat="51.859742" lon="10.677049">
        <ele>272.825560</ele>
        <time>2022-09-12T12:11:18.305Z</time>
      </trkpt>
      <trkpt lat="51.859920" lon="10.677198">
        <ele>271.781335</ele>
        <time>2022-09-12T12:11:40.604Z</time>
      </trkpt>
      <trkpt lat="51.860235" lon="10.677385">
        <ele>270.032944</ele>
        <time>2022-09-12T12:12:17.812Z</time>
      </trkpt>
      <trkpt lat="51.860401" lon="10.677335">
        <ele>269.153038</ele>
        <time>2022-09-12T12:12:36.467Z</time>
      </trkpt>
      <trkpt lat="51.860640" lon="10.677188">
        <ele>267.820723</ele>
        <time>2022-09-12T12:13:04.760Z</time>
      </trkpt>
      <trkpt lat="51.860760" lon="10.677117">
        <ele>267.154934</ele>
        <time>2022-09-12T12:13:18.794Z</time>
      </trkpt>
      <trkpt lat="51.861006" lon="10.676988">
        <ele>265.807418</ele>
        <time>2022-09-12T12:13:47.229Z</time>
      </trkpt>
      <trkpt lat="51.861275" lon="10.676894">
        <ele>264.581210</ele>
        <time>2022-09-12T12:14:17.570Z</time>
      </trkpt>
      <trkpt lat="51.861774" lon="10.677219">
        <ele>262.415154</ele>
        <time>2022-09-12T12:15:16.818Z</time>
      </trkpt>
      <trkpt lat="51.861982" lon="10.677277">
        <ele>261.565160</ele>
        <time>2022-09-12T12:15:40.138Z</time>
      </trkpt>
      <trkpt lat="51.862321" lon="10.677324">
        <ele>260.194934</ele>
        <time>2022-09-12T12:16:16.724Z</time>
      </trkpt>
      <trkpt lat="51.862415" lon="10.677324">
        <ele>259.816374</ele>
        <time>2022-09-12T12:16:26.679Z</time>
      </trkpt>
      <trkpt lat="51.862540" lon="10.677324">
        <ele>259.312970</ele>
        <time>2022-09-12T12:16:39.931Z</time>
      </trkpt>
      <trkpt lat="51.862600" lon="10.677323">
        <ele>259.071323</ele>
        <time>2022-09-12T12:16:46.352Z</time>
      </trkpt>
      <trkpt lat="51.862746" lon="10.677316">
        <ele>258.483089</ele>
        <time>2022-09-12T12:17:01.701Z</time>
      </trkpt>
      <trkpt lat="51.862798" lon="10.677294">
        <ele>258.266643</ele>
        <time>2022-09-12T12:17:07.297Z</time>
      </trkpt>
      <trkpt lat="51.862966" lon="10.677222">
        <ele>257.738694</ele>
        <time>2022-09-12T12:17:25.598Z</time>
      </trkpt>
      <trkpt lat="51.863140" lon="10.677133">
        <ele>257.268146</ele>
        <time>2022-09-12T12:17:44.866Z</time>
      </trkpt>
      <trkpt lat="51.863612" lon="10.677064">
        <ele>256.046043</ele>
        <time>2022-09-12T12:18:34.930Z</time>
      </trkpt>
      <trkpt lat="51.863646" lon="10.677067">
        <ele>255.958237</ele>
        <time>2022-09-12T12:18:38.431Z</time>
      </trkpt>
      <trkpt lat="51.863750" lon="10.677076">
        <ele>255.689668</ele>
        <time>2022-09-12T12:18:49.394Z</time>
      </trkpt>
      <trkpt lat="51.863816" lon="10.677076">
        <ele>255.519473</ele>
        <time>2022-09-12T12:18:56.416Z</time>
      </trkpt>
      <trkpt lat="51.863994" lon="10.677077">
        <ele>255.060459</ele>
        <time>2022-09-12T12:19:15.074Z</time>
      </trkpt>
      <trkpt lat="51.864054" lon="10.677078">
        <ele>254.905728</ele>
        <time>2022-09-12T12:19:21.320Z</time>
      </trkpt>
      <trkpt lat="51.864095" lon="10.677078">
        <ele>254.800001</ele>
        <time>2022-09-12T12:19:25.699Z</time>
      </trkpt>
      <trkpt lat="51.864181" lon="10.677079">
        <ele>254.578226</ele>
        <time>2022-09-12T12:19:34.756Z</time>
      </trkpt>
      <trkpt lat="51.864304" lon="10.677307">
        <ele>254.096120</ele>
        <time>2022-09-12T12:19:54.405Z</time>
      </trkpt>
      <trkpt lat="51.864471" lon="10.677338">
        <ele>253.662655</ele>
        <time>2022-09-12T12:20:12.061Z</time>
      </trkpt>
      <trkpt lat="51.864618" lon="10.677219">
        <ele>253.228525</ele>
        <time>2022-09-12T12:20:29.388Z</time>
      </trkpt>
      <trkpt lat="51.864662" lon="10.677167">
        <ele>253.079405</ele>
        <time>2022-09-12T12:20:35.043Z</time>
      </trkpt>
      <trkpt lat="51.864710" lon="10.677145">
        <ele>252.942839</ele>
        <time>2022-09-12T12:20:40.353Z</time>
      </trkpt>
      <trkpt lat="51.864785" lon="10.677295">
        <ele>252.616561</ele>
        <time>2022-09-12T12:20:52.937Z</time>
      </trkpt>
      <trkpt lat="51.864914" lon="10.677564">
        <ele>252.040792</ele>
        <time>2022-09-12T12:21:15.184Z</time>
      </trkpt>
      <trkpt lat="51.865142" lon="10.678123">
        <ele>250.908273</ele>
        <time>2022-09-12T12:21:59.004Z</time>
      </trkpt>
      <trkpt lat="51.865201" lon="10.678399">
        <ele>250.414529</ele>
        <time>2022-09-12T12:22:18.150Z</time>
      </trkpt>
      <trkpt lat="51.865458" lon="10.679074">
        <ele>249.073982</ele>
        <time>2022-09-12T12:23:10.160Z</time>
      </trkpt>
      <trkpt lat="51.865714" lon="10.679378">
        <ele>248.268478</ele>
        <time>2022-09-12T12:23:43.732Z</time>
      </trkpt>
      <trkpt lat="51.865838" lon="10.679779">
        <ele>247.683845</ele>
        <time>2022-09-12T12:24:12.861Z</time>
      </trkpt>
      <trkpt lat="51.865819" lon="10.679885">
        <ele>247.539958</ele>
        <time>2022-09-12T12:24:19.997Z</time>
      </trkpt>
      <trkpt lat="51.865854" lon="10.679943">
        <ele>247.434240</ele>
        <time>2022-09-12T12:24:25.196Z</time>
      </trkpt>
      <trkpt lat="51.865831" lon="10.680042">
        <ele>247.296350</ele>
        <time>2022-09-12T12:24:31.971Z</time>
      </trkpt>
      <trkpt lat="51.866009" lon="10.680181">
        <ele>246.879167</ele>
        <time>2022-09-12T12:24:52.618Z</time>
      </trkpt>
      <trkpt lat="51.866040" lon="10.680205">
        <ele>246.806629</ele>
        <time>2022-09-12T12:24:56.244Z</time>
      </trkpt>
      <trkpt lat="51.866225" lon="10.680335">
        <ele>246.380892</ele>
        <time>2022-09-12T12:25:17.192Z</time>
      </trkpt>
      <trkpt lat="51.866264" lon="10.680369">
        <ele>246.287387</ele>
        <time>2022-09-12T12:25:21.820Z</time>
      </trkpt>
      <trkpt lat="51.866268" lon="10.680604">
        <ele>245.980924</ele>
        <time>2022-09-12T12:25:36.985Z</time>
      </trkpt>
      <trkpt lat="51.866361" lon="10.680685">
        <ele>245.757997</ele>
        <time>2022-09-12T12:25:47.973Z</time>
      </trkpt>
      <trkpt lat="51.866449" lon="10.680766">
        <ele>245.544309</ele>
        <time>2022-09-12T12:25:58.473Z</time>
      </trkpt>
      <trkpt lat="51.866989" lon="10.681308">
        <ele>244.685504</ele>
        <time>2022-09-12T12:27:04.371Z</time>
      </trkpt>
      <trkpt lat="51.867037" lon="10.681354">
        <ele>244.685504</ele>
        <time>2022-09-12T12:27:10.174Z</time>
      </trkpt>
      <trkpt lat="51.867290" lon="10.681794">
        <ele>244.685504</ele>
        <time>2022-09-12T12:27:48.717Z</time>
      </trkpt>
      <trkpt lat="51.867413" lon="10.681975">
        <ele>244.685504</ele>
        <time>2022-09-12T12:28:05.971Z</time>
      </trkpt>
      <trkpt lat="51.867508" lon="10.682132">
        <ele>244.685504</ele>
        <time>2022-09-12T12:28:19.878Z</time>
      </trkpt>
      <trkpt lat="51.867547" lon="10.682196">
        <ele>244.685504</ele>
        <time>2022-09-12T12:28:25.641Z</time>
      </trkpt>
      <trkpt lat="51.867557" lon="10.682215">
        <ele>244.685504</ele>
        <time>2022-09-12T12:28:27.188Z</time>
      </trkpt>
      <trkpt lat="51.868011" lon="10.683159">
        <ele>244.685504</ele>
        <time>2022-09-12T12:29:43.292Z</time>
      </trkpt>
      <trkpt lat="51.868058" lon="10.683163">
        <ele>244.685504</ele>
        <time>2022-09-12T12:29:48.341Z</time>
      </trkpt>
      <trkpt lat="51.868139" lon="10.683167">
        <ele>244.685504</ele>
        <time>2022-09-12T12:29:56.685Z</time>
      </trkpt>
      <trkpt lat="51.868491" lon="10.682853">
        <ele>244.685504</ele>
        <time>2022-09-12T12:30:38.001Z</time>
      </trkpt>
      <trkpt lat="51.868517" lon="10.682870">
        <ele>244.685504</ele>
        <time>2022-09-12T12:30:40.870Z</time>
      </trkpt>
      <trkpt lat="51.868571" lon="10.682942">
        <ele>244.685504</ele>
        <time>2022-09-12T12:30:47.975Z</time>
      </trkpt>
      <trkpt lat="51.868629" lon="10.683024">
        <ele>244.685504</ele>
        <time>2022-09-12T12:30:55.872Z</time>
      </trkpt>
      <trkpt lat="51.868752" lon="10.682899">
        <ele>244.685504</ele>
        <time>2022-09-12T12:31:10.807Z</time>
      </trkpt>
    </trkseg>
  </trk>
</gpx>